FDX87 KMEM-RJAA
Flight info
| Callsign | FDX87 |
|---|---|
| Flight time | 13h 8m |
| Altitude | 36000 |
| Route | JTEEE5 ODATE DCT STL DCT KP72G DCT KP03C DCT MOT DCT DURUR Q862 YQU DCT MITOM DCT COHIL NCA11 YESKA DCT NODLE R220 NANAC Y810 OLDIV Y809 SUPOK |
| Aircraft | B77L/H-SDE1E2E3FGHIJ2J3J4J5M1RWXY/LB1D1 |
Departure
| Time | 2026-05-06 13:22 |
|---|---|
| Airport | Memphis International Airport (KMEM) |
Arrival
| Time | 2026-05-07 02:30 |
|---|---|
| Airport | Narita International Airport (RJAA) |
| Time | Latitude | Longitude | Altitude | Speed | Heading |
|---|---|---|---|---|---|
| 2026-05-06 13:02 | 35.06020 | -89.97111 | 340 ft | 0 kts | 1° |
| 2026-05-06 13:07 | 35.06004 | -89.97112 | 334 ft | 3 kts | 355° |
| 2026-05-06 13:07 | 35.05984 | -89.97105 | 336 ft | 3 kts | 317° |
| 2026-05-06 13:07 | 35.05972 | -89.97086 | 334 ft | 1 kts | 280° |
| 2026-05-06 13:07 | 35.05972 | -89.97085 | 339 ft | 0 kts | 279° |
| 2026-05-06 13:10 | 35.05972 | -89.97086 | 339 ft | 0 kts | 278° |
| 2026-05-06 13:11 | 35.05969 | -89.97097 | 337 ft | 1 kts | 256° |
| 2026-05-06 13:11 | 35.05954 | -89.97122 | 337 ft | 8 kts | 230° |
| 2026-05-06 13:11 | 35.05916 | -89.97167 | 336 ft | 6 kts | 216° |
| 2026-05-06 13:11 | 35.05883 | -89.97180 | 336 ft | 3 kts | 178° |
| 2026-05-06 13:12 | 35.05849 | -89.97182 | 336 ft | 7 kts | 189° |
| 2026-05-06 13:12 | 35.05758 | -89.97193 | 337 ft | 14 kts | 183° |
| 2026-05-06 13:12 | 35.05684 | -89.97197 | 337 ft | 4 kts | 190° |
| 2026-05-06 13:12 | 35.05660 | -89.97216 | 336 ft | 7 kts | 215° |
| 2026-05-06 13:13 | 35.05605 | -89.97291 | 336 ft | 17 kts | 236° |
| 2026-05-06 13:13 | 35.05531 | -89.97428 | 334 ft | 18 kts | 236° |
| 2026-05-06 13:13 | 35.05455 | -89.97483 | 333 ft | 12 kts | 188° |
| 2026-05-06 13:13 | 35.05343 | -89.97482 | 333 ft | 20 kts | 178° |
| 2026-05-06 13:14 | 35.05195 | -89.97479 | 334 ft | 19 kts | 179° |
| 2026-05-06 13:14 | 35.05071 | -89.97476 | 334 ft | 16 kts | 180° |
| 2026-05-06 13:14 | 35.04972 | -89.97474 | 333 ft | 13 kts | 179° |
| 2026-05-06 13:14 | 35.04890 | -89.97472 | 334 ft | 12 kts | 178° |
| 2026-05-06 13:15 | 35.04807 | -89.97469 | 334 ft | 11 kts | 180° |
| 2026-05-06 13:15 | 35.04740 | -89.97469 | 335 ft | 9 kts | 179° |
| 2026-05-06 13:15 | 35.04679 | -89.97468 | 334 ft | 11 kts | 179° |
| 2026-05-06 13:15 | 35.04583 | -89.97465 | 332 ft | 19 kts | 178° |
| 2026-05-06 13:16 | 35.04434 | -89.97462 | 335 ft | 20 kts | 180° |
| 2026-05-06 13:16 | 35.04316 | -89.97461 | 335 ft | 14 kts | 179° |
| 2026-05-06 13:16 | 35.04232 | -89.97458 | 335 ft | 12 kts | 179° |
| 2026-05-06 13:16 | 35.04125 | -89.97455 | 335 ft | 19 kts | 178° |
| 2026-05-06 13:17 | 35.03979 | -89.97454 | 332 ft | 23 kts | 180° |
| 2026-05-06 13:17 | 35.03820 | -89.97450 | 333 ft | 21 kts | 178° |
| 2026-05-06 13:17 | 35.03691 | -89.97446 | 331 ft | 16 kts | 179° |
| 2026-05-06 13:17 | 35.03595 | -89.97445 | 334 ft | 12 kts | 179° |
| 2026-05-06 13:18 | 35.03510 | -89.97443 | 334 ft | 13 kts | 179° |
| 2026-05-06 13:18 | 35.03414 | -89.97442 | 334 ft | 15 kts | 179° |
| 2026-05-06 13:18 | 35.03300 | -89.97439 | 334 ft | 18 kts | 180° |
| 2026-05-06 13:18 | 35.03170 | -89.97438 | 333 ft | 20 kts | 178° |
| 2026-05-06 13:19 | 35.03076 | -89.97435 | 335 ft | 21 kts | 179° |
| 2026-05-06 13:19 | 35.02922 | -89.97431 | 334 ft | 23 kts | 179° |
| 2026-05-06 13:19 | 35.02753 | -89.97427 | 335 ft | 24 kts | 179° |
| 2026-05-06 13:19 | 35.02606 | -89.97423 | 335 ft | 18 kts | 178° |
| 2026-05-06 13:20 | 35.02498 | -89.97422 | 335 ft | 13 kts | 182° |
| 2026-05-06 13:20 | 35.02435 | -89.97434 | 333 ft | 3 kts | 211° |
| 2026-05-06 13:20 | 35.02421 | -89.97472 | 332 ft | 10 kts | 256° |
| 2026-05-06 13:20 | 35.02421 | -89.97530 | 332 ft | 1 kts | 300° |
| 2026-05-06 13:21 | 35.02423 | -89.97531 | 332 ft | 1 kts | 313° |
| 2026-05-06 13:21 | 35.02444 | -89.97546 | 332 ft | 4 kts | 338° |
| 2026-05-06 13:21 | 35.02457 | -89.97548 | 330 ft | 0 kts | 353° |
| 2026-05-06 13:21 | 35.02709 | -89.97557 | 332 ft | 73 kts | 359° |
| 2026-05-06 13:22 | 35.03471 | -89.97577 | 329 ft | 145 kts | 359° |
| 2026-05-06 13:22 | 35.04710 | -89.97603 | 352 ft | 211 kts | 0° |
| 2026-05-06 13:22 | 35.06251 | -89.97618 | 1299 ft | 220 kts | 1° |
| 2026-05-06 13:22 | 35.07848 | -89.97721 | 1886 ft | 243 kts | 356° |
| 2026-05-06 13:23 | 35.09534 | -89.97969 | 2348 ft | 246 kts | 349° |
| 2026-05-06 13:23 | 35.11195 | -89.98508 | 2869 ft | 250 kts | 342° |
| 2026-05-06 13:23 | 35.12893 | -89.99093 | 3395 ft | 256 kts | 341° |
| 2026-05-06 13:23 | 35.14625 | -89.99635 | 3917 ft | 259 kts | 343° |
| 2026-05-06 13:24 | 35.16409 | -90.00026 | 4446 ft | 262 kts | 344° |
| 2026-05-06 13:24 | 35.18253 | -90.00367 | 4662 ft | 272 kts | 347° |
| 2026-05-06 13:24 | 35.20134 | -90.00650 | 4739 ft | 275 kts | 345° |
| 2026-05-06 13:24 | 35.22027 | -90.00977 | 4907 ft | 272 kts | 345° |
| 2026-05-06 13:25 | 35.23911 | -90.01268 | 4985 ft | 276 kts | 349° |
| 2026-05-06 13:25 | 35.25845 | -90.01379 | 5001 ft | 278 kts | 352° |
| 2026-05-06 13:25 | 35.27778 | -90.01456 | 5018 ft | 277 kts | 351° |
| 2026-05-06 13:25 | 35.29694 | -90.01567 | 5063 ft | 277 kts | 351° |
| 2026-05-06 13:26 | 35.31634 | -90.01696 | 5247 ft | 282 kts | 351° |
| 2026-05-06 13:26 | 35.33595 | -90.01813 | 5777 ft | 281 kts | 351° |
| 2026-05-06 13:26 | 35.35570 | -90.01930 | 6449 ft | 289 kts | 351° |
| 2026-05-06 13:26 | 35.37586 | -90.02053 | 6910 ft | 294 kts | 351° |
| 2026-05-06 13:27 | 35.39638 | -90.02175 | 7190 ft | 297 kts | 351° |
| 2026-05-06 13:27 | 35.41703 | -90.02300 | 7285 ft | 296 kts | 351° |
| 2026-05-06 13:27 | 35.43754 | -90.02421 | 7335 ft | 294 kts | 351° |
| 2026-05-06 13:27 | 35.45788 | -90.02545 | 7364 ft | 292 kts | 351° |
| 2026-05-06 13:28 | 35.47816 | -90.02668 | 7374 ft | 291 kts | 351° |
| 2026-05-06 13:28 | 35.49842 | -90.02793 | 7397 ft | 292 kts | 351° |
| 2026-05-06 13:28 | 35.51880 | -90.02916 | 7410 ft | 293 kts | 351° |
| 2026-05-06 13:28 | 35.53916 | -90.03037 | 7410 ft | 293 kts | 351° |
| 2026-05-06 13:29 | 35.55923 | -90.03157 | 7406 ft | 292 kts | 351° |
| 2026-05-06 13:29 | 35.57948 | -90.03281 | 7402 ft | 291 kts | 351° |
| 2026-05-06 13:29 | 35.59971 | -90.03388 | 7408 ft | 292 kts | 353° |
| 2026-05-06 13:29 | 35.62005 | -90.03450 | 7412 ft | 291 kts | 350° |
| 2026-05-06 13:30 | 35.64013 | -90.03644 | 7489 ft | 287 kts | 349° |
| 2026-05-06 13:30 | 35.65999 | -90.03847 | 7872 ft | 286 kts | 349° |
| 2026-05-06 13:30 | 35.67979 | -90.04018 | 8507 ft | 287 kts | 350° |
| 2026-05-06 13:30 | 35.70024 | -90.04196 | 8817 ft | 302 kts | 350° |
| 2026-05-06 13:31 | 35.72118 | -90.04372 | 8818 ft | 300 kts | 350° |
| 2026-05-06 13:31 | 35.74190 | -90.04548 | 8782 ft | 296 kts | 350° |
| 2026-05-06 13:31 | 35.76239 | -90.04666 | 8779 ft | 293 kts | 351° |
| 2026-05-06 13:31 | 35.78250 | -90.04850 | 9000 ft | 289 kts | 346° |
| 2026-05-06 13:32 | 35.80258 | -90.05164 | 9262 ft | 295 kts | 346° |
| 2026-05-06 13:32 | 35.82309 | -90.05469 | 9261 ft | 297 kts | 347° |
| 2026-05-06 13:32 | 35.84341 | -90.05732 | 9466 ft | 290 kts | 347° |
| 2026-05-06 13:32 | 35.86341 | -90.05999 | 9954 ft | 288 kts | 346° |
| 2026-05-06 13:33 | 35.88362 | -90.06279 | 10484 ft | 300 kts | 346° |
| 2026-05-06 13:33 | 35.90509 | -90.06584 | 11011 ft | 322 kts | 346° |
| 2026-05-06 13:33 | 35.92820 | -90.06893 | 11533 ft | 346 kts | 346° |
| 2026-05-06 13:33 | 35.95297 | -90.07221 | 12026 ft | 372 kts | 346° |
| 2026-05-06 13:34 | 35.97937 | -90.07583 | 12340 ft | 402 kts | 346° |
| 2026-05-06 13:34 | 36.00802 | -90.07966 | 12646 ft | 422 kts | 346° |
| 2026-05-06 13:34 | 36.03742 | -90.08358 | 12931 ft | 425 kts | 346° |
| 2026-05-06 13:34 | 36.06683 | -90.08763 | 13195 ft | 424 kts | 346° |
| 2026-05-06 13:35 | 36.09617 | -90.09164 | 13451 ft | 425 kts | 346° |
| 2026-05-06 13:35 | 36.12552 | -90.09567 | 13881 ft | 424 kts | 345° |
| 2026-05-06 13:35 | 36.15505 | -90.09971 | 14308 ft | 430 kts | 346° |
| 2026-05-06 13:35 | 36.18493 | -90.10379 | 14733 ft | 434 kts | 345° |
| 2026-05-06 13:36 | 36.21504 | -90.10787 | 15162 ft | 436 kts | 345° |
| 2026-05-06 13:36 | 36.24524 | -90.11203 | 15596 ft | 438 kts | 345° |
| 2026-05-06 13:36 | 36.27569 | -90.11617 | 16034 ft | 441 kts | 345° |
| 2026-05-06 13:36 | 36.30632 | -90.12041 | 16487 ft | 444 kts | 345° |
| 2026-05-06 13:37 | 36.33716 | -90.12459 | 16942 ft | 448 kts | 345° |
| 2026-05-06 13:37 | 36.36833 | -90.12890 | 17407 ft | 452 kts | 344° |
| 2026-05-06 13:37 | 36.39967 | -90.13315 | 17875 ft | 455 kts | 344° |
| 2026-05-06 13:37 | 36.43130 | -90.13755 | 18377 ft | 459 kts | 344° |
| 2026-05-06 13:38 | 36.46279 | -90.14184 | 18787 ft | 463 kts | 344° |
| 2026-05-06 13:38 | 36.49491 | -90.14629 | 19210 ft | 465 kts | 344° |
| 2026-05-06 13:38 | 36.52714 | -90.15068 | 19643 ft | 468 kts | 344° |
| 2026-05-06 13:38 | 36.55957 | -90.15519 | 20072 ft | 471 kts | 344° |
| 2026-05-06 13:39 | 36.59232 | -90.15969 | 20512 ft | 473 kts | 343° |
| 2026-05-06 13:39 | 36.62518 | -90.16422 | 20952 ft | 477 kts | 344° |
| 2026-05-06 13:39 | 36.65826 | -90.16880 | 21404 ft | 480 kts | 343° |
| 2026-05-06 13:39 | 36.69157 | -90.17338 | 21847 ft | 483 kts | 343° |
| 2026-05-06 13:40 | 36.72506 | -90.17805 | 22306 ft | 486 kts | 343° |
| 2026-05-06 13:40 | 36.75879 | -90.18269 | 22789 ft | 489 kts | 343° |
| 2026-05-06 13:40 | 36.79268 | -90.18742 | 23271 ft | 492 kts | 343° |
| 2026-05-06 13:40 | 36.82684 | -90.19213 | 23738 ft | 495 kts | 343° |
| 2026-05-06 13:41 | 36.86117 | -90.19692 | 24139 ft | 498 kts | 343° |
| 2026-05-06 13:41 | 36.89568 | -90.20169 | 24556 ft | 500 kts | 342° |
| 2026-05-06 13:41 | 36.93033 | -90.20652 | 24975 ft | 502 kts | 342° |
| 2026-05-06 13:41 | 36.96468 | -90.21132 | 25394 ft | 504 kts | 342° |
| 2026-05-06 13:42 | 36.99963 | -90.21617 | 25831 ft | 506 kts | 342° |
| 2026-05-06 13:42 | 37.03474 | -90.22109 | 26269 ft | 509 kts | 342° |
| 2026-05-06 13:42 | 37.07053 | -90.22608 | 26720 ft | 512 kts | 342° |
| 2026-05-06 13:42 | 37.10608 | -90.23104 | 27168 ft | 515 kts | 342° |
| 2026-05-06 13:43 | 37.14134 | -90.23598 | 27631 ft | 518 kts | 342° |
| 2026-05-06 13:43 | 37.17725 | -90.24101 | 28102 ft | 521 kts | 342° |
| 2026-05-06 13:43 | 37.21347 | -90.24609 | 28566 ft | 524 kts | 342° |
| 2026-05-06 13:43 | 37.24981 | -90.25119 | 29060 ft | 528 kts | 341° |
| 2026-05-06 13:44 | 37.28640 | -90.25631 | 29565 ft | 530 kts | 341° |
| 2026-05-06 13:44 | 37.32297 | -90.26144 | 30059 ft | 528 kts | 341° |
| 2026-05-06 13:44 | 37.35939 | -90.26655 | 30474 ft | 520 kts | 341° |
| 2026-05-06 13:44 | 37.39452 | -90.27139 | 30870 ft | 496 kts | 340° |
| 2026-05-06 13:45 | 37.42837 | -90.27635 | 31312 ft | 486 kts | 339° |
| 2026-05-06 13:45 | 37.49595 | -90.28591 | 32288 ft | 493 kts | 339° |
| 2026-05-06 13:45 | 37.52985 | -90.29064 | 32822 ft | 497 kts | 339° |
| 2026-05-06 13:46 | 37.56436 | -90.29554 | 33353 ft | 500 kts | 338° |
| 2026-05-06 13:46 | 37.59909 | -90.30045 | 33905 ft | 504 kts | 338° |
| 2026-05-06 13:46 | 37.63421 | -90.30547 | 34178 ft | 513 kts | 338° |
| 2026-05-06 13:46 | 37.66992 | -90.31050 | 34431 ft | 519 kts | 339° |
| 2026-05-06 13:47 | 37.70568 | -90.31549 | 34676 ft | 512 kts | 338° |
| 2026-05-06 13:47 | 37.74058 | -90.32041 | 34887 ft | 497 kts | 337° |
| 2026-05-06 13:47 | 37.77471 | -90.32543 | 35127 ft | 492 kts | 338° |
| 2026-05-06 13:47 | 37.80871 | -90.33029 | 35398 ft | 493 kts | 338° |
| 2026-05-06 13:48 | 37.84291 | -90.33514 | 35676 ft | 496 kts | 338° |
| 2026-05-06 13:48 | 37.87745 | -90.34009 | 35921 ft | 502 kts | 338° |
| 2026-05-06 13:48 | 37.94777 | -90.35003 | 36029 ft | 508 kts | 338° |
| 2026-05-06 13:49 | 38.01748 | -90.36006 | 36031 ft | 500 kts | 337° |
| 2026-05-06 13:49 | 38.08584 | -90.36990 | 36047 ft | 496 kts | 337° |
| 2026-05-06 13:50 | 38.15461 | -90.37976 | 36070 ft | 499 kts | 337° |
| 2026-05-06 13:50 | 38.22380 | -90.38972 | 36064 ft | 500 kts | 337° |
| 2026-05-06 13:51 | 38.29274 | -90.39964 | 36058 ft | 495 kts | 337° |
| 2026-05-06 13:51 | 38.36092 | -90.40955 | 36047 ft | 492 kts | 337° |
| 2026-05-06 13:52 | 38.42900 | -90.41941 | 36059 ft | 494 kts | 337° |
| 2026-05-06 13:52 | 38.49742 | -90.42930 | 36059 ft | 495 kts | 337° |
| 2026-05-06 13:53 | 38.56566 | -90.43922 | 36075 ft | 492 kts | 337° |
| 2026-05-06 13:53 | 38.63315 | -90.44907 | 36064 ft | 490 kts | 337° |
| 2026-05-06 13:54 | 38.70091 | -90.45896 | 36078 ft | 490 kts | 336° |
| 2026-05-06 13:54 | 38.76869 | -90.46885 | 36079 ft | 490 kts | 336° |
| 2026-05-06 13:55 | 38.83596 | -90.47969 | 36043 ft | 473 kts | 328° |
| 2026-05-06 13:55 | 38.86532 | -90.49386 | 36118 ft | 432 kts | 314° |
| 2026-05-06 13:55 | 38.89050 | -90.51377 | 36153 ft | 419 kts | 307° |
| 2026-05-06 13:56 | 38.93505 | -90.56071 | 36103 ft | 416 kts | 306° |
| 2026-05-06 13:56 | 38.97964 | -90.60772 | 36060 ft | 412 kts | 306° |
| 2026-05-06 13:57 | 39.02373 | -90.65443 | 36071 ft | 409 kts | 306° |
| 2026-05-06 13:57 | 39.06778 | -90.70112 | 36061 ft | 411 kts | 306° |
| 2026-05-06 13:58 | 39.11201 | -90.74805 | 36067 ft | 412 kts | 306° |
| 2026-05-06 13:58 | 39.15589 | -90.79471 | 36054 ft | 410 kts | 306° |
| 2026-05-06 13:59 | 39.19985 | -90.84155 | 36064 ft | 409 kts | 306° |
| 2026-05-06 13:59 | 39.24376 | -90.88840 | 36066 ft | 410 kts | 306° |
| 2026-05-06 14:00 | 39.28780 | -90.93545 | 36066 ft | 411 kts | 306° |
| 2026-05-06 14:00 | 39.33182 | -90.98256 | 36060 ft | 410 kts | 306° |
| 2026-05-06 14:01 | 39.37569 | -91.02960 | 36112 ft | 409 kts | 306° |
| 2026-05-06 14:01 | 39.41926 | -91.07642 | 36154 ft | 410 kts | 306° |
| 2026-05-06 14:02 | 39.46321 | -91.12372 | 36187 ft | 411 kts | 306° |
| 2026-05-06 14:02 | 39.50715 | -91.17105 | 36205 ft | 410 kts | 306° |
| 2026-05-06 14:03 | 39.55097 | -91.21836 | 36220 ft | 409 kts | 306° |
| 2026-05-06 14:03 | 39.59472 | -91.26569 | 36222 ft | 410 kts | 306° |
| 2026-05-06 14:04 | 39.61664 | -91.28941 | 36086 ft | 411 kts | 306° |
| 2026-05-06 14:04 | 39.63854 | -91.31314 | 36085 ft | 411 kts | 306° |
| 2026-05-06 14:04 | 39.68237 | -91.36068 | 36085 ft | 410 kts | 306° |
| 2026-05-06 14:05 | 39.72588 | -91.40800 | 36095 ft | 410 kts | 306° |
| 2026-05-06 14:05 | 39.76963 | -91.45564 | 36095 ft | 411 kts | 306° |
| 2026-05-06 14:06 | 39.81343 | -91.50341 | 36095 ft | 411 kts | 306° |
| 2026-05-06 14:06 | 39.85726 | -91.55127 | 36076 ft | 411 kts | 306° |
| 2026-05-06 14:07 | 39.90103 | -91.59920 | 36086 ft | 411 kts | 306° |
| 2026-05-06 14:07 | 39.93745 | -91.63913 | 36098 ft | 411 kts | 306° |
| 2026-05-06 14:08 | 39.97803 | -91.68367 | 36096 ft | 413 kts | 306° |
| 2026-05-06 14:08 | 40.02201 | -91.73203 | 36090 ft | 413 kts | 306° |
| 2026-05-06 14:09 | 40.06559 | -91.78004 | 36088 ft | 412 kts | 306° |
| 2026-05-06 14:09 | 40.10942 | -91.82843 | 36095 ft | 413 kts | 306° |
| 2026-05-06 14:10 | 40.15338 | -91.87700 | 36099 ft | 415 kts | 306° |
| 2026-05-06 14:10 | 40.19749 | -91.92586 | 36100 ft | 415 kts | 306° |
| 2026-05-06 14:11 | 40.24155 | -91.97474 | 36106 ft | 415 kts | 306° |
| 2026-05-06 14:11 | 40.28562 | -92.02373 | 36090 ft | 415 kts | 306° |
| 2026-05-06 14:12 | 40.32938 | -92.07244 | 36114 ft | 416 kts | 306° |
| 2026-05-06 14:12 | 40.37355 | -92.12169 | 36101 ft | 417 kts | 306° |
| 2026-05-06 14:13 | 40.41779 | -92.17113 | 36112 ft | 418 kts | 306° |
| 2026-05-06 14:13 | 40.46197 | -92.22057 | 36117 ft | 418 kts | 306° |
| 2026-05-06 14:14 | 40.50629 | -92.27028 | 36117 ft | 419 kts | 306° |
| 2026-05-06 14:14 | 40.55075 | -92.32022 | 36120 ft | 421 kts | 306° |
| 2026-05-06 14:15 | 40.59506 | -92.37007 | 36120 ft | 422 kts | 306° |
| 2026-05-06 14:15 | 40.63961 | -92.42030 | 36120 ft | 422 kts | 306° |
| 2026-05-06 14:16 | 40.68422 | -92.47070 | 36119 ft | 422 kts | 307° |
| 2026-05-06 14:16 | 40.72892 | -92.52128 | 36121 ft | 424 kts | 307° |
| 2026-05-06 14:17 | 40.77372 | -92.57208 | 36122 ft | 426 kts | 307° |
| 2026-05-06 14:17 | 40.81878 | -92.62322 | 36125 ft | 427 kts | 307° |
| 2026-05-06 14:18 | 40.86384 | -92.67451 | 36126 ft | 428 kts | 307° |
| 2026-05-06 14:18 | 40.90862 | -92.72557 | 36125 ft | 428 kts | 307° |
| 2026-05-06 14:19 | 40.95383 | -92.77720 | 36134 ft | 431 kts | 307° |
| 2026-05-06 14:19 | 40.99929 | -92.82920 | 36131 ft | 432 kts | 307° |
| 2026-05-06 14:20 | 41.04477 | -92.88134 | 36121 ft | 433 kts | 308° |
| 2026-05-06 14:20 | 41.09031 | -92.93367 | 36116 ft | 434 kts | 308° |
| 2026-05-06 14:21 | 41.13607 | -92.98631 | 36128 ft | 436 kts | 308° |
| 2026-05-06 14:21 | 41.18201 | -93.03928 | 36130 ft | 438 kts | 308° |
| 2026-05-06 14:22 | 41.22794 | -93.09233 | 36125 ft | 437 kts | 308° |
| 2026-05-06 14:22 | 41.27381 | -93.14544 | 36124 ft | 438 kts | 308° |
| 2026-05-06 14:23 | 41.31955 | -93.19849 | 36119 ft | 440 kts | 308° |
| 2026-05-06 14:23 | 41.36577 | -93.25218 | 36119 ft | 442 kts | 308° |
| 2026-05-06 14:24 | 41.41210 | -93.30612 | 36127 ft | 442 kts | 309° |
| 2026-05-06 14:24 | 41.45844 | -93.36018 | 36130 ft | 443 kts | 309° |
| 2026-05-06 14:25 | 41.50484 | -93.41442 | 36128 ft | 444 kts | 309° |
| 2026-05-06 14:25 | 41.55131 | -93.46885 | 36132 ft | 445 kts | 309° |
| 2026-05-06 14:26 | 41.59760 | -93.52317 | 36143 ft | 446 kts | 309° |
| 2026-05-06 14:26 | 41.64427 | -93.57805 | 36137 ft | 447 kts | 309° |
| 2026-05-06 14:27 | 41.69091 | -93.63301 | 36143 ft | 446 kts | 309° |
| 2026-05-06 14:27 | 41.73752 | -93.68801 | 36145 ft | 447 kts | 309° |
| 2026-05-06 14:28 | 41.78424 | -93.74329 | 36141 ft | 448 kts | 310° |
| 2026-05-06 14:28 | 41.83099 | -93.79872 | 36127 ft | 449 kts | 310° |
| 2026-05-06 14:29 | 41.87776 | -93.85427 | 36120 ft | 448 kts | 310° |
| 2026-05-06 14:29 | 41.92410 | -93.90942 | 36112 ft | 447 kts | 310° |
| 2026-05-06 14:30 | 41.97067 | -93.96497 | 36114 ft | 448 kts | 309° |
| 2026-05-06 14:30 | 42.01820 | -94.01963 | 36125 ft | 454 kts | 314° |
| 2026-05-06 14:31 | 42.06789 | -94.07203 | 36131 ft | 453 kts | 313° |
| 2026-05-06 14:31 | 42.11746 | -94.12454 | 36130 ft | 452 kts | 313° |
| 2026-05-06 14:32 | 42.16681 | -94.17708 | 36126 ft | 451 kts | 313° |
| 2026-05-06 14:32 | 42.21574 | -94.22925 | 36148 ft | 452 kts | 313° |
| 2026-05-06 14:33 | 42.26521 | -94.28211 | 36160 ft | 454 kts | 313° |
| 2026-05-06 14:33 | 42.31465 | -94.33504 | 36152 ft | 454 kts | 313° |
| 2026-05-06 14:34 | 42.36410 | -94.38810 | 36149 ft | 453 kts | 313° |
| 2026-05-06 14:34 | 42.41351 | -94.44123 | 36153 ft | 455 kts | 313° |
| 2026-05-06 14:35 | 42.46314 | -94.49469 | 36152 ft | 456 kts | 313° |
| 2026-05-06 14:35 | 42.51282 | -94.54833 | 36151 ft | 457 kts | 313° |
| 2026-05-06 14:36 | 42.56251 | -94.60207 | 36151 ft | 456 kts | 313° |
| 2026-05-06 14:36 | 42.61200 | -94.65574 | 36156 ft | 456 kts | 313° |
| 2026-05-06 14:37 | 42.66131 | -94.70931 | 36160 ft | 457 kts | 313° |
| 2026-05-06 14:37 | 42.71099 | -94.76340 | 36152 ft | 457 kts | 313° |
| 2026-05-06 14:38 | 42.76056 | -94.81746 | 36142 ft | 456 kts | 313° |
| 2026-05-06 14:38 | 42.80997 | -94.87150 | 36143 ft | 456 kts | 313° |
| 2026-05-06 14:39 | 42.85950 | -94.92576 | 36145 ft | 457 kts | 313° |
| 2026-05-06 14:39 | 42.90916 | -94.98029 | 36142 ft | 458 kts | 313° |
| 2026-05-06 14:40 | 42.95842 | -95.03448 | 36139 ft | 458 kts | 313° |
| 2026-05-06 14:40 | 43.00802 | -95.08918 | 36136 ft | 458 kts | 313° |
| 2026-05-06 14:41 | 43.05767 | -95.14404 | 36134 ft | 459 kts | 313° |
| 2026-05-06 14:41 | 43.10735 | -95.19905 | 36128 ft | 460 kts | 314° |
| 2026-05-06 14:42 | 43.15708 | -95.25424 | 36133 ft | 460 kts | 314° |
| 2026-05-06 14:42 | 43.20678 | -95.30952 | 36130 ft | 460 kts | 314° |
| 2026-05-06 14:43 | 43.25653 | -95.36496 | 36135 ft | 461 kts | 314° |
| 2026-05-06 14:43 | 43.30639 | -95.42067 | 36136 ft | 462 kts | 314° |
| 2026-05-06 14:44 | 43.35624 | -95.47646 | 36131 ft | 462 kts | 314° |
| 2026-05-06 14:45 | 43.43097 | -95.56036 | 36137 ft | 462 kts | 314° |
| 2026-05-06 14:45 | 43.48081 | -95.61645 | 36139 ft | 463 kts | 314° |
| 2026-05-06 14:46 | 43.53072 | -95.67274 | 36130 ft | 464 kts | 315° |
| 2026-05-06 14:46 | 43.58022 | -95.72871 | 36132 ft | 463 kts | 315° |
| 2026-05-06 14:47 | 43.62998 | -95.78510 | 36134 ft | 463 kts | 315° |
| 2026-05-06 14:47 | 43.67983 | -95.84170 | 36142 ft | 464 kts | 315° |
| 2026-05-06 14:48 | 43.72966 | -95.89840 | 36144 ft | 465 kts | 315° |
| 2026-05-06 14:48 | 43.77959 | -95.95537 | 36138 ft | 464 kts | 315° |
| 2026-05-06 14:49 | 43.82941 | -96.01232 | 36141 ft | 464 kts | 315° |
| 2026-05-06 14:49 | 43.87922 | -96.06940 | 36131 ft | 465 kts | 315° |
| 2026-05-06 14:50 | 43.92911 | -96.12667 | 36147 ft | 466 kts | 315° |
| 2026-05-06 14:50 | 43.97904 | -96.18415 | 36129 ft | 466 kts | 315° |
| 2026-05-06 14:51 | 44.02888 | -96.24165 | 36129 ft | 465 kts | 315° |
| 2026-05-06 14:51 | 44.07870 | -96.29923 | 36136 ft | 466 kts | 315° |
| 2026-05-06 14:52 | 44.12828 | -96.35669 | 36138 ft | 467 kts | 315° |
| 2026-05-06 14:52 | 44.17826 | -96.41472 | 36152 ft | 468 kts | 315° |
| 2026-05-06 14:53 | 44.22810 | -96.47275 | 36147 ft | 467 kts | 316° |
| 2026-05-06 14:53 | 44.27800 | -96.53096 | 36138 ft | 467 kts | 316° |
| 2026-05-06 14:54 | 44.32792 | -96.58934 | 36144 ft | 468 kts | 316° |
| 2026-05-06 14:54 | 44.37793 | -96.64796 | 36135 ft | 469 kts | 316° |
| 2026-05-06 14:55 | 44.42789 | -96.70665 | 36139 ft | 468 kts | 316° |
| 2026-05-06 14:55 | 44.47771 | -96.76532 | 36140 ft | 468 kts | 316° |
| 2026-05-06 14:56 | 44.51915 | -96.81421 | 36145 ft | 469 kts | 316° |
| 2026-05-06 14:56 | 44.57714 | -96.88279 | 36151 ft | 470 kts | 316° |
| 2026-05-06 14:57 | 44.62709 | -96.94203 | 36149 ft | 470 kts | 316° |
| 2026-05-06 14:57 | 44.66887 | -96.99166 | 36138 ft | 470 kts | 316° |
| 2026-05-06 14:58 | 44.71874 | -97.05106 | 36132 ft | 470 kts | 316° |
| 2026-05-06 14:58 | 44.76842 | -97.11034 | 36125 ft | 471 kts | 316° |
| 2026-05-06 14:59 | 44.81845 | -97.17021 | 36120 ft | 472 kts | 316° |
| 2026-05-06 14:59 | 44.86842 | -97.23013 | 36122 ft | 472 kts | 316° |
| 2026-05-06 15:00 | 44.91835 | -97.29014 | 36123 ft | 472 kts | 316° |
| 2026-05-06 15:00 | 44.96830 | -97.35034 | 36124 ft | 472 kts | 317° |
| 2026-05-06 15:01 | 45.01831 | -97.41074 | 36125 ft | 473 kts | 317° |
| 2026-05-06 15:01 | 45.06823 | -97.47117 | 36131 ft | 472 kts | 317° |
| 2026-05-06 15:02 | 45.11805 | -97.53164 | 36132 ft | 471 kts | 317° |
| 2026-05-06 15:02 | 45.16783 | -97.59218 | 36137 ft | 471 kts | 317° |
| 2026-05-06 15:03 | 45.21716 | -97.65234 | 36139 ft | 471 kts | 317° |
| 2026-05-06 15:03 | 45.26680 | -97.71300 | 36137 ft | 471 kts | 317° |
| 2026-05-06 15:04 | 45.31644 | -97.77383 | 36136 ft | 470 kts | 317° |
| 2026-05-06 15:04 | 45.36596 | -97.83464 | 36148 ft | 470 kts | 317° |
| 2026-05-06 15:05 | 45.41543 | -97.89555 | 36142 ft | 470 kts | 317° |
| 2026-05-06 15:05 | 45.46490 | -97.95659 | 36143 ft | 470 kts | 317° |
| 2026-05-06 15:06 | 45.51481 | -98.01697 | 36145 ft | 471 kts | 321° |
| 2026-05-06 15:06 | 45.56662 | -98.07439 | 36143 ft | 472 kts | 320° |
| 2026-05-06 15:07 | 45.61840 | -98.13212 | 36139 ft | 472 kts | 320° |
| 2026-05-06 15:07 | 45.67004 | -98.18999 | 36138 ft | 471 kts | 320° |
| 2026-05-06 15:08 | 45.72164 | -98.24793 | 36146 ft | 471 kts | 320° |
| 2026-05-06 15:08 | 45.77287 | -98.30560 | 36145 ft | 472 kts | 320° |
| 2026-05-06 15:09 | 45.82443 | -98.36378 | 36147 ft | 472 kts | 320° |
| 2026-05-06 15:09 | 45.87599 | -98.42211 | 36145 ft | 471 kts | 320° |
| 2026-05-06 15:10 | 45.92739 | -98.48039 | 36144 ft | 471 kts | 320° |
| 2026-05-06 15:10 | 45.97879 | -98.53881 | 36148 ft | 471 kts | 320° |
| 2026-05-06 15:11 | 46.03016 | -98.59737 | 36142 ft | 471 kts | 320° |
| 2026-05-06 15:11 | 46.08149 | -98.65598 | 36145 ft | 470 kts | 320° |
| 2026-05-06 15:12 | 46.13267 | -98.71459 | 36143 ft | 470 kts | 320° |
| 2026-05-06 15:12 | 46.18385 | -98.77333 | 36143 ft | 470 kts | 320° |
| 2026-05-06 15:13 | 46.23473 | -98.83190 | 36141 ft | 470 kts | 320° |
| 2026-05-06 15:13 | 46.28585 | -98.89086 | 36137 ft | 470 kts | 320° |
| 2026-05-06 15:14 | 46.33696 | -98.94996 | 36142 ft | 470 kts | 320° |
| 2026-05-06 15:14 | 46.38798 | -99.00910 | 36140 ft | 470 kts | 320° |
| 2026-05-06 15:15 | 46.43896 | -99.06835 | 36137 ft | 470 kts | 321° |
| 2026-05-06 15:15 | 46.48998 | -99.12778 | 36140 ft | 470 kts | 321° |
| 2026-05-06 15:16 | 46.54077 | -99.18710 | 36141 ft | 470 kts | 321° |
| 2026-05-06 15:16 | 46.59183 | -99.24686 | 36145 ft | 470 kts | 321° |
| 2026-05-06 15:17 | 46.64272 | -99.30660 | 36144 ft | 470 kts | 321° |
| 2026-05-06 15:17 | 46.69366 | -99.36653 | 36142 ft | 471 kts | 321° |
| 2026-05-06 15:18 | 46.74458 | -99.42659 | 36144 ft | 470 kts | 321° |
| 2026-05-06 15:18 | 46.79503 | -99.48625 | 36144 ft | 470 kts | 321° |
| 2026-05-06 15:19 | 46.84579 | -99.54641 | 36150 ft | 470 kts | 321° |
| 2026-05-06 15:19 | 46.89658 | -99.60678 | 36149 ft | 471 kts | 321° |
| 2026-05-06 15:20 | 46.94743 | -99.66736 | 36152 ft | 471 kts | 321° |
| 2026-05-06 15:20 | 46.99815 | -99.72795 | 36151 ft | 470 kts | 321° |
| 2026-05-06 15:21 | 47.04884 | -99.78864 | 36151 ft | 470 kts | 321° |
| 2026-05-06 15:21 | 47.09943 | -99.84937 | 36154 ft | 471 kts | 321° |
| 2026-05-06 15:22 | 47.15011 | -99.91037 | 36154 ft | 471 kts | 321° |
| 2026-05-06 15:22 | 47.20070 | -99.97142 | 36153 ft | 470 kts | 321° |
| 2026-05-06 15:23 | 47.25125 | -100.03257 | 36154 ft | 470 kts | 321° |
| 2026-05-06 15:23 | 47.30137 | -100.09335 | 36156 ft | 470 kts | 321° |
| 2026-05-06 15:24 | 47.35185 | -100.15473 | 36155 ft | 470 kts | 321° |
| 2026-05-06 15:24 | 47.40237 | -100.21631 | 36153 ft | 470 kts | 321° |
| 2026-05-06 15:25 | 47.45265 | -100.27776 | 36148 ft | 469 kts | 321° |
| 2026-05-06 15:25 | 47.50292 | -100.33934 | 36151 ft | 469 kts | 321° |
| 2026-05-06 15:26 | 47.55314 | -100.40104 | 36148 ft | 469 kts | 321° |
| 2026-05-06 15:26 | 47.60331 | -100.46284 | 36141 ft | 469 kts | 321° |
| 2026-05-06 15:27 | 47.65332 | -100.52458 | 36144 ft | 467 kts | 321° |
| 2026-05-06 15:27 | 47.70290 | -100.58595 | 36139 ft | 467 kts | 321° |
| 2026-05-06 15:28 | 47.75283 | -100.64794 | 36134 ft | 467 kts | 321° |
| 2026-05-06 15:28 | 47.80267 | -100.70994 | 36133 ft | 467 kts | 321° |
| 2026-05-06 15:29 | 47.85247 | -100.77208 | 36133 ft | 466 kts | 321° |
| 2026-05-06 15:29 | 47.90207 | -100.83412 | 36131 ft | 465 kts | 321° |
| 2026-05-06 15:30 | 47.95164 | -100.89628 | 36134 ft | 465 kts | 321° |
| 2026-05-06 15:30 | 48.00113 | -100.95850 | 36127 ft | 465 kts | 321° |
| 2026-05-06 15:31 | 48.05028 | -101.02046 | 36122 ft | 464 kts | 321° |
| 2026-05-06 15:31 | 48.09951 | -101.08268 | 36117 ft | 463 kts | 321° |
| 2026-05-06 15:32 | 48.17321 | -101.17613 | 36108 ft | 462 kts | 321° |
| 2026-05-06 15:32 | 48.22223 | -101.23849 | 36111 ft | 462 kts | 321° |
| 2026-05-06 15:33 | 48.27101 | -101.30125 | 36111 ft | 462 kts | 318° |
| 2026-05-06 15:33 | 48.31783 | -101.36720 | 36111 ft | 461 kts | 319° |
| 2026-05-06 15:34 | 48.36445 | -101.43261 | 36079 ft | 461 kts | 319° |
| 2026-05-06 15:34 | 48.41137 | -101.49844 | 36078 ft | 461 kts | 319° |
| 2026-05-06 15:35 | 48.45815 | -101.56430 | 36085 ft | 459 kts | 319° |
| 2026-05-06 15:35 | 48.50471 | -101.63000 | 36100 ft | 458 kts | 319° |
| 2026-05-06 15:36 | 48.55124 | -101.69583 | 36111 ft | 458 kts | 319° |
| 2026-05-06 15:36 | 48.59769 | -101.76171 | 36125 ft | 458 kts | 319° |
| 2026-05-06 15:37 | 48.64402 | -101.82761 | 36128 ft | 456 kts | 320° |
| 2026-05-06 15:37 | 48.68986 | -101.89298 | 36130 ft | 455 kts | 320° |
| 2026-05-06 15:38 | 48.73591 | -101.95883 | 36132 ft | 455 kts | 320° |
| 2026-05-06 15:38 | 48.78189 | -102.02475 | 36139 ft | 455 kts | 320° |
| 2026-05-06 15:39 | 48.82778 | -102.09070 | 36132 ft | 454 kts | 320° |
| 2026-05-06 15:39 | 48.87345 | -102.15654 | 36134 ft | 452 kts | 320° |
| 2026-05-06 15:40 | 48.91902 | -102.22237 | 36136 ft | 451 kts | 320° |
| 2026-05-06 15:40 | 48.96447 | -102.28825 | 36141 ft | 451 kts | 320° |
| 2026-05-06 15:41 | 49.00969 | -102.35393 | 36139 ft | 451 kts | 320° |
| 2026-05-06 15:41 | 49.05501 | -102.41993 | 36140 ft | 450 kts | 320° |
| 2026-05-06 15:42 | 49.10018 | -102.48590 | 36139 ft | 449 kts | 320° |
| 2026-05-06 15:42 | 49.14518 | -102.55180 | 36135 ft | 448 kts | 320° |
| 2026-05-06 15:43 | 49.19016 | -102.61784 | 36134 ft | 448 kts | 320° |
| 2026-05-06 15:43 | 49.23500 | -102.68385 | 36126 ft | 447 kts | 320° |
| 2026-05-06 15:44 | 49.27223 | -102.73879 | 36126 ft | 446 kts | 320° |
| 2026-05-06 15:44 | 49.32400 | -102.81539 | 36125 ft | 445 kts | 320° |
| 2026-05-06 15:45 | 49.36846 | -102.88137 | 36124 ft | 444 kts | 320° |
| 2026-05-06 15:45 | 49.40538 | -102.93628 | 36130 ft | 444 kts | 320° |
| 2026-05-06 15:46 | 49.44972 | -103.00240 | 36142 ft | 443 kts | 320° |
| 2026-05-06 15:46 | 49.49387 | -103.06842 | 36139 ft | 442 kts | 320° |
| 2026-05-06 15:47 | 49.53783 | -103.13429 | 36152 ft | 441 kts | 320° |
| 2026-05-06 15:47 | 49.58168 | -103.20022 | 36164 ft | 441 kts | 320° |
| 2026-05-06 15:48 | 49.62557 | -103.26634 | 36156 ft | 440 kts | 320° |
| 2026-05-06 15:48 | 49.66928 | -103.33240 | 36157 ft | 439 kts | 320° |
| 2026-05-06 15:49 | 49.71281 | -103.39834 | 36160 ft | 437 kts | 320° |
| 2026-05-06 15:49 | 49.75619 | -103.46423 | 36155 ft | 437 kts | 320° |
| 2026-05-06 15:50 | 49.79921 | -103.52976 | 36154 ft | 437 kts | 320° |
| 2026-05-06 15:50 | 49.84239 | -103.59570 | 36151 ft | 435 kts | 320° |
| 2026-05-06 15:51 | 49.88543 | -103.66160 | 36152 ft | 434 kts | 320° |
| 2026-05-06 15:51 | 49.92834 | -103.72747 | 36155 ft | 434 kts | 320° |
| 2026-05-06 15:52 | 49.97115 | -103.79337 | 36155 ft | 433 kts | 320° |
| 2026-05-06 15:52 | 50.01393 | -103.85939 | 36151 ft | 432 kts | 320° |
| 2026-05-06 15:53 | 50.05647 | -103.92522 | 36152 ft | 431 kts | 320° |
| 2026-05-06 15:53 | 50.09895 | -103.99112 | 36156 ft | 431 kts | 320° |
| 2026-05-06 15:54 | 50.14142 | -104.05721 | 36153 ft | 431 kts | 320° |
| 2026-05-06 15:54 | 50.18357 | -104.12294 | 36151 ft | 430 kts | 320° |
| 2026-05-06 15:55 | 50.22578 | -104.18896 | 36150 ft | 428 kts | 320° |
| 2026-05-06 15:55 | 50.26785 | -104.25493 | 36138 ft | 428 kts | 320° |
| 2026-05-06 15:56 | 50.30989 | -104.32102 | 36131 ft | 429 kts | 320° |
| 2026-05-06 15:56 | 50.35169 | -104.38692 | 36121 ft | 428 kts | 320° |
| 2026-05-06 15:57 | 50.39357 | -104.45312 | 36114 ft | 427 kts | 320° |
| 2026-05-06 15:57 | 50.43531 | -104.51926 | 36107 ft | 426 kts | 320° |
| 2026-05-06 15:58 | 50.47691 | -104.58539 | 36108 ft | 426 kts | 320° |
| 2026-05-06 15:58 | 50.51853 | -104.65168 | 36106 ft | 426 kts | 320° |
| 2026-05-06 15:59 | 50.56003 | -104.71800 | 36116 ft | 425 kts | 320° |
| 2026-05-06 15:59 | 50.60153 | -104.78446 | 36122 ft | 424 kts | 320° |
| 2026-05-06 16:00 | 50.64239 | -104.85050 | 36127 ft | 425 kts | 315° |
| 2026-05-06 16:00 | 50.67743 | -104.92686 | 36154 ft | 432 kts | 310° |
| 2026-05-06 16:01 | 50.70737 | -105.01010 | 36163 ft | 439 kts | 305° |
| 2026-05-06 16:01 | 50.73582 | -105.09491 | 36147 ft | 437 kts | 305° |
| 2026-05-06 16:02 | 50.76397 | -105.17962 | 36145 ft | 435 kts | 305° |
| 2026-05-06 16:02 | 50.79208 | -105.26424 | 36144 ft | 435 kts | 305° |
| 2026-05-06 16:03 | 50.82012 | -105.34900 | 36144 ft | 436 kts | 305° |
| 2026-05-06 16:03 | 50.84815 | -105.43401 | 36143 ft | 435 kts | 305° |
| 2026-05-06 16:04 | 50.87588 | -105.51839 | 36142 ft | 434 kts | 305° |
| 2026-05-06 16:04 | 50.90374 | -105.60326 | 36138 ft | 434 kts | 305° |
| 2026-05-06 16:05 | 50.93089 | -105.68879 | 36156 ft | 435 kts | 306° |
| 2026-05-06 16:05 | 50.95931 | -105.77375 | 36143 ft | 438 kts | 304° |
| 2026-05-06 16:06 | 50.98706 | -105.85952 | 36129 ft | 435 kts | 304° |
| 2026-05-06 16:06 | 51.01460 | -105.94487 | 36126 ft | 434 kts | 304° |
| 2026-05-06 16:07 | 51.04196 | -106.02984 | 36128 ft | 435 kts | 304° |
| 2026-05-06 16:07 | 51.06953 | -106.11575 | 36136 ft | 437 kts | 304° |
| 2026-05-06 16:08 | 51.09707 | -106.20196 | 36133 ft | 437 kts | 304° |
| 2026-05-06 16:08 | 51.12456 | -106.28819 | 36129 ft | 436 kts | 304° |
| 2026-05-06 16:09 | 51.15193 | -106.37444 | 36132 ft | 437 kts | 304° |
| 2026-05-06 16:09 | 51.17934 | -106.46105 | 36140 ft | 438 kts | 303° |
| 2026-05-06 16:10 | 51.20672 | -106.54790 | 36131 ft | 439 kts | 303° |
| 2026-05-06 16:10 | 51.23406 | -106.63493 | 36133 ft | 438 kts | 303° |
| 2026-05-06 16:11 | 51.26130 | -106.72195 | 36127 ft | 438 kts | 303° |
| 2026-05-06 16:11 | 51.28856 | -106.80933 | 36132 ft | 440 kts | 303° |
| 2026-05-06 16:12 | 51.31580 | -106.89701 | 36124 ft | 441 kts | 303° |
| 2026-05-06 16:12 | 51.34282 | -106.98425 | 36127 ft | 440 kts | 303° |
| 2026-05-06 16:13 | 51.36993 | -107.07210 | 36124 ft | 441 kts | 303° |
| 2026-05-06 16:13 | 51.39702 | -107.16021 | 36122 ft | 442 kts | 303° |
| 2026-05-06 16:14 | 51.42410 | -107.24860 | 36114 ft | 443 kts | 303° |
| 2026-05-06 16:14 | 51.45116 | -107.33726 | 36123 ft | 442 kts | 303° |
| 2026-05-06 16:15 | 51.47812 | -107.42592 | 36117 ft | 443 kts | 302° |
| 2026-05-06 16:15 | 51.50507 | -107.51486 | 36114 ft | 443 kts | 302° |
| 2026-05-06 16:16 | 51.53201 | -107.60413 | 36106 ft | 444 kts | 302° |
| 2026-05-06 16:16 | 51.55886 | -107.69339 | 36109 ft | 443 kts | 302° |
| 2026-05-06 16:17 | 51.58549 | -107.78226 | 36115 ft | 444 kts | 302° |
| 2026-05-06 16:17 | 51.61223 | -107.87182 | 36112 ft | 444 kts | 302° |
| 2026-05-06 16:18 | 51.63892 | -107.96159 | 36109 ft | 445 kts | 302° |
| 2026-05-06 16:18 | 51.66558 | -108.05155 | 36107 ft | 445 kts | 302° |
| 2026-05-06 16:19 | 51.69213 | -108.14150 | 36103 ft | 444 kts | 302° |
| 2026-05-06 16:19 | 51.71862 | -108.23154 | 36106 ft | 445 kts | 301° |
| 2026-05-06 16:20 | 51.74510 | -108.32195 | 36105 ft | 446 kts | 301° |
| 2026-05-06 16:20 | 51.77153 | -108.41251 | 36104 ft | 445 kts | 301° |
| 2026-05-06 16:21 | 51.79789 | -108.50318 | 36105 ft | 445 kts | 301° |
| 2026-05-06 16:21 | 51.82416 | -108.59387 | 36105 ft | 446 kts | 301° |
| 2026-05-06 16:22 | 51.85039 | -108.68478 | 36103 ft | 446 kts | 301° |
| 2026-05-06 16:22 | 51.87659 | -108.77592 | 36107 ft | 446 kts | 301° |
| 2026-05-06 16:23 | 51.90249 | -108.86637 | 36104 ft | 445 kts | 301° |
| 2026-05-06 16:23 | 51.92850 | -108.95758 | 36104 ft | 446 kts | 301° |
| 2026-05-06 16:24 | 51.95444 | -109.04886 | 36099 ft | 446 kts | 301° |
| 2026-05-06 16:24 | 51.98032 | -109.14029 | 36100 ft | 446 kts | 301° |
| 2026-05-06 16:25 | 52.00609 | -109.23168 | 36096 ft | 445 kts | 301° |
| 2026-05-06 16:25 | 52.03178 | -109.32316 | 36092 ft | 445 kts | 301° |
| 2026-05-06 16:26 | 52.05741 | -109.41483 | 36090 ft | 445 kts | 301° |
| 2026-05-06 16:26 | 52.08294 | -109.50645 | 36089 ft | 445 kts | 300° |
| 2026-05-06 16:27 | 52.10839 | -109.59813 | 36081 ft | 444 kts | 300° |
| 2026-05-06 16:27 | 52.13370 | -109.68970 | 36085 ft | 444 kts | 300° |
| 2026-05-06 16:28 | 52.15886 | -109.78103 | 36082 ft | 445 kts | 300° |
| 2026-05-06 16:28 | 52.18407 | -109.87299 | 36080 ft | 444 kts | 300° |
| 2026-05-06 16:29 | 52.20920 | -109.96495 | 36071 ft | 443 kts | 300° |
| 2026-05-06 16:29 | 52.23418 | -110.05677 | 36074 ft | 443 kts | 300° |
| 2026-05-06 16:30 | 52.25088 | -110.11838 | 36069 ft | 444 kts | 300° |
| 2026-05-06 16:30 | 52.27170 | -110.19408 | 35995 ft | 431 kts | 299° |
| 2026-05-06 16:30 | 52.28335 | -110.23897 | 36018 ft | 429 kts | 297° |
| 2026-05-06 16:31 | 52.30757 | -110.32794 | 36075 ft | 431 kts | 299° |
| 2026-05-06 16:31 | 52.33156 | -110.41830 | 36073 ft | 435 kts | 299° |
| 2026-05-06 16:32 | 52.35576 | -110.50897 | 36068 ft | 433 kts | 299° |
| 2026-05-06 16:32 | 52.37956 | -110.59855 | 36065 ft | 431 kts | 298° |
| 2026-05-06 16:33 | 52.40343 | -110.68876 | 36061 ft | 432 kts | 298° |
| 2026-05-06 16:34 | 52.43922 | -110.82468 | 36068 ft | 434 kts | 298° |
| 2026-05-06 16:34 | 52.45914 | -110.90069 | 36061 ft | 433 kts | 298° |
| 2026-05-06 16:35 | 52.48268 | -110.99082 | 36060 ft | 432 kts | 298° |
| 2026-05-06 16:35 | 52.51029 | -111.09699 | 36061 ft | 434 kts | 298° |
| 2026-05-06 16:36 | 52.52992 | -111.17280 | 36054 ft | 434 kts | 298° |
| 2026-05-06 16:36 | 52.55350 | -111.26422 | 36054 ft | 434 kts | 298° |
| 2026-05-06 16:37 | 52.57697 | -111.35552 | 36042 ft | 434 kts | 297° |
| 2026-05-06 16:37 | 52.60038 | -111.44696 | 36051 ft | 435 kts | 297° |
| 2026-05-06 16:38 | 52.62377 | -111.53879 | 36044 ft | 435 kts | 297° |
| 2026-05-06 16:38 | 52.64711 | -111.63072 | 36035 ft | 435 kts | 297° |
| 2026-05-06 16:39 | 52.67034 | -111.72262 | 36034 ft | 435 kts | 297° |
| 2026-05-06 16:39 | 52.69354 | -111.81477 | 36030 ft | 436 kts | 297° |
| 2026-05-06 16:40 | 52.71672 | -111.90720 | 36025 ft | 436 kts | 297° |
| 2026-05-06 16:40 | 52.73982 | -111.99976 | 36013 ft | 436 kts | 296° |
| 2026-05-06 16:41 | 52.76282 | -112.09226 | 36013 ft | 435 kts | 296° |
| 2026-05-06 16:41 | 52.78575 | -112.18490 | 36008 ft | 436 kts | 296° |
| 2026-05-06 16:42 | 52.80865 | -112.27777 | 36012 ft | 437 kts | 296° |
| 2026-05-06 16:42 | 52.83137 | -112.37033 | 35996 ft | 437 kts | 296° |
| 2026-05-06 16:43 | 52.85415 | -112.46349 | 35997 ft | 436 kts | 296° |
| 2026-05-06 16:43 | 52.87682 | -112.55666 | 35990 ft | 437 kts | 296° |
| 2026-05-06 16:44 | 52.89948 | -112.65011 | 35992 ft | 437 kts | 295° |
| 2026-05-06 16:44 | 52.92206 | -112.74366 | 35984 ft | 437 kts | 295° |
| 2026-05-06 16:45 | 52.94455 | -112.83728 | 35993 ft | 437 kts | 295° |
| 2026-05-06 16:45 | 52.96698 | -112.93097 | 35986 ft | 437 kts | 295° |
| 2026-05-06 16:46 | 52.98933 | -113.02485 | 35978 ft | 438 kts | 295° |
| 2026-05-06 16:46 | 53.01164 | -113.11887 | 35974 ft | 438 kts | 295° |
| 2026-05-06 16:47 | 53.03369 | -113.21227 | 35969 ft | 437 kts | 295° |
| 2026-05-06 16:47 | 53.05581 | -113.30631 | 35958 ft | 437 kts | 295° |
| 2026-05-06 16:48 | 53.07789 | -113.40067 | 35948 ft | 438 kts | 294° |
| 2026-05-06 16:48 | 53.09992 | -113.49521 | 35943 ft | 438 kts | 294° |
| 2026-05-06 16:49 | 53.12186 | -113.58980 | 35931 ft | 438 kts | 294° |
| 2026-05-06 16:49 | 53.14371 | -113.68434 | 35928 ft | 437 kts | 294° |
| 2026-05-06 16:50 | 53.16550 | -113.77913 | 35932 ft | 438 kts | 294° |
| 2026-05-06 16:50 | 53.18529 | -113.87546 | 35925 ft | 440 kts | 290° |
| 2026-05-06 16:51 | 53.19758 | -113.97591 | 35937 ft | 442 kts | 284° |
| 2026-05-06 16:51 | 53.20876 | -114.07680 | 35916 ft | 443 kts | 284° |
| 2026-05-06 16:52 | 53.21976 | -114.17804 | 35911 ft | 443 kts | 284° |
| 2026-05-06 16:52 | 53.23067 | -114.27921 | 35904 ft | 442 kts | 283° |
| 2026-05-06 16:53 | 53.24148 | -114.38025 | 35907 ft | 442 kts | 283° |
| 2026-05-06 16:53 | 53.25222 | -114.48141 | 35897 ft | 443 kts | 283° |
| 2026-05-06 16:54 | 53.26282 | -114.58211 | 35899 ft | 443 kts | 283° |
| 2026-05-06 16:54 | 53.28015 | -114.67938 | 35950 ft | 434 kts | 301° |
| 2026-05-06 16:55 | 53.31235 | -114.76546 | 35933 ft | 439 kts | 304° |
| 2026-05-06 16:55 | 53.34999 | -114.84611 | 35907 ft | 439 kts | 308° |
| 2026-05-06 16:56 | 53.38771 | -114.92612 | 35893 ft | 436 kts | 308° |
| 2026-05-06 16:56 | 53.42540 | -115.00604 | 35899 ft | 437 kts | 308° |
| 2026-05-06 16:57 | 53.46315 | -115.08637 | 35897 ft | 440 kts | 308° |
| 2026-05-06 16:57 | 53.50098 | -115.16714 | 35895 ft | 440 kts | 308° |
| 2026-05-06 16:58 | 53.53871 | -115.24797 | 35892 ft | 439 kts | 308° |
| 2026-05-06 16:58 | 53.57638 | -115.32889 | 35895 ft | 440 kts | 308° |
| 2026-05-06 16:59 | 53.61407 | -115.41017 | 35889 ft | 441 kts | 307° |
| 2026-05-06 16:59 | 53.65181 | -115.49177 | 35887 ft | 441 kts | 307° |
| 2026-05-06 17:00 | 53.68923 | -115.57299 | 35889 ft | 441 kts | 307° |
| 2026-05-06 17:00 | 53.72687 | -115.65493 | 35895 ft | 442 kts | 307° |
| 2026-05-06 17:01 | 53.76452 | -115.73716 | 35898 ft | 443 kts | 307° |
| 2026-05-06 17:01 | 53.80218 | -115.81970 | 35903 ft | 443 kts | 307° |
| 2026-05-06 17:02 | 53.83976 | -115.90231 | 35902 ft | 443 kts | 307° |
| 2026-05-06 17:02 | 53.87732 | -115.98518 | 35906 ft | 444 kts | 307° |
| 2026-05-06 17:03 | 53.91497 | -116.06849 | 35905 ft | 446 kts | 306° |
| 2026-05-06 17:03 | 53.95262 | -116.15210 | 35893 ft | 445 kts | 306° |
| 2026-05-06 17:04 | 53.99010 | -116.23562 | 35892 ft | 445 kts | 306° |
| 2026-05-06 17:04 | 54.02762 | -116.31951 | 35898 ft | 447 kts | 306° |
| 2026-05-06 17:05 | 54.06523 | -116.40385 | 35879 ft | 447 kts | 306° |
| 2026-05-06 17:05 | 54.10273 | -116.48829 | 35870 ft | 446 kts | 306° |
| 2026-05-06 17:06 | 54.13999 | -116.57241 | 35879 ft | 448 kts | 306° |
| 2026-05-06 17:06 | 54.17755 | -116.65753 | 35870 ft | 450 kts | 306° |
| 2026-05-06 17:07 | 54.21513 | -116.74296 | 35863 ft | 449 kts | 305° |
| 2026-05-06 17:07 | 54.25257 | -116.82840 | 35861 ft | 449 kts | 305° |
| 2026-05-06 17:08 | 54.29000 | -116.91410 | 35858 ft | 451 kts | 305° |
| 2026-05-06 17:08 | 54.32756 | -117.00038 | 35852 ft | 451 kts | 305° |
| 2026-05-06 17:09 | 54.36479 | -117.08620 | 35846 ft | 451 kts | 305° |
| 2026-05-06 17:09 | 54.40220 | -117.17274 | 35845 ft | 452 kts | 304° |
| 2026-05-06 17:10 | 54.43963 | -117.25962 | 35840 ft | 453 kts | 304° |
| 2026-05-06 17:10 | 54.47705 | -117.34681 | 35839 ft | 454 kts | 304° |
| 2026-05-06 17:11 | 54.51454 | -117.43447 | 35840 ft | 454 kts | 304° |
| 2026-05-06 17:11 | 54.55194 | -117.52216 | 35833 ft | 454 kts | 304° |
| 2026-05-06 17:12 | 54.58930 | -117.61015 | 35835 ft | 455 kts | 304° |
| 2026-05-06 17:12 | 54.62671 | -117.69852 | 35836 ft | 457 kts | 304° |
| 2026-05-06 17:13 | 54.66416 | -117.78733 | 35830 ft | 457 kts | 304° |
| 2026-05-06 17:13 | 54.70150 | -117.87620 | 35831 ft | 457 kts | 304° |
| 2026-05-06 17:14 | 54.73859 | -117.96475 | 35838 ft | 458 kts | 303° |
| 2026-05-06 17:14 | 54.77595 | -118.05429 | 35842 ft | 459 kts | 303° |
| 2026-05-06 17:15 | 54.81328 | -118.14411 | 35839 ft | 459 kts | 303° |
| 2026-05-06 17:15 | 54.85057 | -118.23411 | 35840 ft | 459 kts | 303° |
| 2026-05-06 17:16 | 54.88777 | -118.32425 | 35842 ft | 460 kts | 303° |
| 2026-05-06 17:16 | 54.92499 | -118.41476 | 35840 ft | 460 kts | 303° |
| 2026-05-06 17:17 | 54.96220 | -118.50559 | 35832 ft | 461 kts | 303° |
| 2026-05-06 17:17 | 54.99930 | -118.59647 | 35822 ft | 460 kts | 303° |
| 2026-05-06 17:18 | 55.03634 | -118.68753 | 35814 ft | 461 kts | 303° |
| 2026-05-06 17:18 | 55.07340 | -118.77899 | 35811 ft | 462 kts | 303° |
| 2026-05-06 17:19 | 55.11020 | -118.87017 | 35803 ft | 462 kts | 303° |
| 2026-05-06 17:19 | 55.14717 | -118.96206 | 35806 ft | 462 kts | 303° |
| 2026-05-06 17:20 | 55.18309 | -119.05535 | 35804 ft | 461 kts | 296° |
| 2026-05-06 17:20 | 55.21463 | -119.15316 | 35821 ft | 462 kts | 297° |
| 2026-05-06 17:21 | 55.24105 | -119.23465 | 35820 ft | 463 kts | 297° |
| 2026-05-06 17:21 | 55.27282 | -119.33284 | 35814 ft | 462 kts | 297° |
| 2026-05-06 17:22 | 55.30443 | -119.43096 | 35818 ft | 462 kts | 297° |
| 2026-05-06 17:22 | 55.33607 | -119.52953 | 35818 ft | 464 kts | 297° |
| 2026-05-06 17:23 | 55.36768 | -119.62842 | 35808 ft | 464 kts | 297° |
| 2026-05-06 17:23 | 55.39924 | -119.72758 | 35806 ft | 463 kts | 297° |
| 2026-05-06 17:24 | 55.43066 | -119.82668 | 35810 ft | 464 kts | 297° |
| 2026-05-06 17:24 | 55.46186 | -119.92549 | 35805 ft | 465 kts | 297° |
| 2026-05-06 17:25 | 55.49322 | -120.02524 | 35800 ft | 465 kts | 297° |
| 2026-05-06 17:25 | 55.52454 | -120.12526 | 35786 ft | 464 kts | 296° |
| 2026-05-06 17:26 | 55.55567 | -120.22512 | 35794 ft | 464 kts | 296° |
| 2026-05-06 17:26 | 55.58677 | -120.32530 | 35794 ft | 466 kts | 296° |
| 2026-05-06 17:27 | 55.61789 | -120.42597 | 35792 ft | 466 kts | 296° |
| 2026-05-06 17:27 | 55.64893 | -120.52676 | 35802 ft | 466 kts | 296° |
| 2026-05-06 17:28 | 55.67985 | -120.62763 | 35801 ft | 466 kts | 296° |
| 2026-05-06 17:28 | 55.71074 | -120.72885 | 35813 ft | 467 kts | 296° |
| 2026-05-06 17:29 | 55.74145 | -120.82984 | 35823 ft | 468 kts | 296° |
| 2026-05-06 17:29 | 55.77221 | -120.93152 | 35825 ft | 467 kts | 296° |
| 2026-05-06 17:30 | 55.80295 | -121.03350 | 35825 ft | 467 kts | 296° |
| 2026-05-06 17:30 | 55.83355 | -121.13552 | 35832 ft | 468 kts | 296° |
| 2026-05-06 17:31 | 55.86412 | -121.23785 | 35836 ft | 469 kts | 296° |
| 2026-05-06 17:31 | 55.89465 | -121.34049 | 35831 ft | 469 kts | 295° |
| 2026-05-06 17:32 | 55.92508 | -121.44324 | 35831 ft | 468 kts | 295° |
| 2026-05-06 17:32 | 55.95537 | -121.54599 | 35837 ft | 469 kts | 295° |
| 2026-05-06 17:33 | 55.98563 | -121.64906 | 35836 ft | 469 kts | 295° |
| 2026-05-06 17:33 | 56.01588 | -121.75256 | 35838 ft | 469 kts | 295° |
| 2026-05-06 17:34 | 56.04597 | -121.85596 | 35840 ft | 469 kts | 295° |
| 2026-05-06 17:34 | 56.07601 | -121.95969 | 35835 ft | 469 kts | 295° |
| 2026-05-06 17:35 | 56.10583 | -122.06307 | 35834 ft | 470 kts | 295° |
| 2026-05-06 17:35 | 56.13572 | -122.16716 | 35825 ft | 469 kts | 295° |
| 2026-05-06 17:36 | 56.18031 | -122.32335 | 35842 ft | 469 kts | 295° |
| 2026-05-06 17:36 | 56.20997 | -122.42784 | 35837 ft | 470 kts | 295° |
| 2026-05-06 17:37 | 56.23956 | -122.53256 | 35831 ft | 469 kts | 294° |
| 2026-05-06 17:37 | 56.26900 | -122.63722 | 35839 ft | 468 kts | 294° |
| 2026-05-06 17:38 | 56.29839 | -122.74210 | 35843 ft | 469 kts | 294° |
| 2026-05-06 17:38 | 56.32764 | -122.84704 | 35829 ft | 469 kts | 294° |
| 2026-05-06 17:39 | 56.35683 | -122.95218 | 35835 ft | 469 kts | 294° |
| 2026-05-06 17:39 | 56.38594 | -123.05756 | 35842 ft | 468 kts | 294° |
| 2026-05-06 17:40 | 56.41473 | -123.16235 | 35817 ft | 468 kts | 294° |
| 2026-05-06 17:40 | 56.44357 | -123.26767 | 35834 ft | 467 kts | 294° |
| 2026-05-06 17:41 | 56.47230 | -123.37311 | 35845 ft | 468 kts | 294° |
| 2026-05-06 17:41 | 56.50100 | -123.47893 | 35861 ft | 468 kts | 294° |
| 2026-05-06 17:42 | 56.52963 | -123.58498 | 35864 ft | 468 kts | 293° |
| 2026-05-06 17:42 | 56.55810 | -123.69092 | 35842 ft | 467 kts | 293° |
| 2026-05-06 17:43 | 56.58638 | -123.79668 | 35864 ft | 466 kts | 293° |
| 2026-05-06 17:43 | 56.61459 | -123.90271 | 35865 ft | 467 kts | 293° |
| 2026-05-06 17:44 | 56.64278 | -124.00907 | 35878 ft | 466 kts | 293° |
| 2026-05-06 17:44 | 56.67076 | -124.11518 | 35873 ft | 465 kts | 293° |
| 2026-05-06 17:45 | 56.69866 | -124.22148 | 35860 ft | 466 kts | 293° |
| 2026-05-06 17:45 | 56.72646 | -124.32790 | 35867 ft | 466 kts | 292° |
| 2026-05-06 17:46 | 56.75400 | -124.43385 | 35864 ft | 464 kts | 292° |
| 2026-05-06 17:46 | 56.78153 | -124.54022 | 35865 ft | 464 kts | 292° |
| 2026-05-06 17:47 | 56.80896 | -124.64680 | 35864 ft | 465 kts | 292° |
| 2026-05-06 17:47 | 56.83638 | -124.75373 | 35872 ft | 466 kts | 292° |
| 2026-05-06 17:48 | 56.86378 | -124.86118 | 35876 ft | 466 kts | 292° |
| 2026-05-06 17:48 | 56.89108 | -124.96871 | 35864 ft | 465 kts | 292° |
| 2026-05-06 17:49 | 56.91817 | -125.07597 | 35865 ft | 464 kts | 292° |
| 2026-05-06 17:49 | 56.94522 | -125.18355 | 35867 ft | 466 kts | 292° |
| 2026-05-06 17:50 | 56.97224 | -125.29160 | 35885 ft | 466 kts | 292° |
| 2026-05-06 17:50 | 56.99895 | -125.39891 | 35877 ft | 465 kts | 292° |
| 2026-05-06 17:51 | 57.02571 | -125.50691 | 35898 ft | 465 kts | 292° |
| 2026-05-06 17:51 | 57.05246 | -125.61541 | 35907 ft | 467 kts | 292° |
| 2026-05-06 17:52 | 57.07915 | -125.72425 | 35916 ft | 467 kts | 291° |
| 2026-05-06 17:52 | 57.10570 | -125.83304 | 35926 ft | 466 kts | 291° |
| 2026-05-06 17:53 | 57.13210 | -125.94179 | 35915 ft | 465 kts | 291° |
| 2026-05-06 17:53 | 57.15843 | -126.05069 | 35930 ft | 465 kts | 291° |
| 2026-05-06 17:54 | 57.18469 | -126.15995 | 35944 ft | 467 kts | 291° |
| 2026-05-06 17:54 | 57.21087 | -126.26940 | 35950 ft | 466 kts | 291° |
| 2026-05-06 17:55 | 57.23691 | -126.37873 | 35951 ft | 465 kts | 291° |
| 2026-05-06 17:55 | 57.26280 | -126.48811 | 35961 ft | 465 kts | 291° |
| 2026-05-06 17:56 | 57.28864 | -126.59782 | 35951 ft | 466 kts | 290° |
| 2026-05-06 17:56 | 57.31420 | -126.70683 | 35919 ft | 465 kts | 290° |
| 2026-05-06 17:57 | 57.33981 | -126.81666 | 35938 ft | 465 kts | 290° |
| 2026-05-06 17:57 | 57.36537 | -126.92680 | 35960 ft | 465 kts | 290° |
| 2026-05-06 17:58 | 57.39080 | -127.03696 | 35983 ft | 465 kts | 290° |
| 2026-05-06 17:58 | 57.41614 | -127.14730 | 35957 ft | 464 kts | 290° |
| 2026-05-06 17:59 | 57.44131 | -127.25750 | 35975 ft | 464 kts | 290° |
| 2026-05-06 17:59 | 57.46643 | -127.36802 | 35980 ft | 465 kts | 289° |
| 2026-05-06 18:00 | 57.49146 | -127.47877 | 35964 ft | 464 kts | 289° |
| 2026-05-06 18:00 | 57.51630 | -127.58920 | 35978 ft | 463 kts | 289° |
| 2026-05-06 18:01 | 57.54109 | -127.70004 | 35969 ft | 464 kts | 289° |
| 2026-05-06 18:01 | 57.56564 | -127.81036 | 35970 ft | 464 kts | 289° |
| 2026-05-06 18:02 | 57.59025 | -127.92150 | 35977 ft | 463 kts | 289° |
| 2026-05-06 18:02 | 57.61472 | -128.03264 | 35990 ft | 464 kts | 289° |
| 2026-05-06 18:03 | 57.63914 | -128.14417 | 35988 ft | 465 kts | 289° |
| 2026-05-06 18:03 | 57.66347 | -128.25584 | 35991 ft | 464 kts | 289° |
| 2026-05-06 18:04 | 57.68770 | -128.36770 | 35996 ft | 463 kts | 288° |
| 2026-05-06 18:04 | 57.71179 | -128.47949 | 36002 ft | 463 kts | 288° |
| 2026-05-06 18:05 | 57.73176 | -128.57259 | 36021 ft | 464 kts | 288° |
| 2026-05-06 18:05 | 57.75955 | -128.70292 | 36006 ft | 463 kts | 288° |
| 2026-05-06 18:06 | 57.78330 | -128.81494 | 36016 ft | 462 kts | 288° |
| 2026-05-06 18:06 | 57.80313 | -128.90893 | 36022 ft | 463 kts | 288° |
| 2026-05-06 18:07 | 57.82672 | -129.02136 | 36021 ft | 464 kts | 288° |
| 2026-05-06 18:07 | 57.85011 | -129.13341 | 36033 ft | 463 kts | 288° |
| 2026-05-06 18:08 | 57.87348 | -129.24602 | 36033 ft | 463 kts | 288° |
| 2026-05-06 18:08 | 57.89678 | -129.35887 | 36040 ft | 463 kts | 288° |
| 2026-05-06 18:09 | 57.91999 | -129.47199 | 36040 ft | 463 kts | 288° |
| 2026-05-06 18:09 | 57.94311 | -129.58529 | 36048 ft | 463 kts | 288° |
| 2026-05-06 18:10 | 57.96611 | -129.69856 | 36052 ft | 463 kts | 288° |
| 2026-05-06 18:10 | 57.98884 | -129.81118 | 36048 ft | 463 kts | 288° |
| 2026-05-06 18:11 | 58.01169 | -129.92505 | 36071 ft | 464 kts | 288° |
| 2026-05-06 18:11 | 58.03442 | -130.03903 | 36058 ft | 463 kts | 287° |
| 2026-05-06 18:12 | 58.05697 | -130.15266 | 36070 ft | 462 kts | 287° |
| 2026-05-06 18:12 | 58.07941 | -130.26650 | 36067 ft | 463 kts | 287° |
| 2026-05-06 18:13 | 58.10182 | -130.38070 | 36065 ft | 463 kts | 287° |
| 2026-05-06 18:13 | 58.12391 | -130.49412 | 36081 ft | 462 kts | 287° |
| 2026-05-06 18:14 | 58.14607 | -130.60839 | 36084 ft | 463 kts | 287° |
| 2026-05-06 18:14 | 58.16814 | -130.72293 | 36087 ft | 463 kts | 287° |
| 2026-05-06 18:15 | 58.19011 | -130.83763 | 36085 ft | 463 kts | 287° |
| 2026-05-06 18:15 | 58.21194 | -130.95228 | 36081 ft | 462 kts | 287° |
| 2026-05-06 18:16 | 58.23367 | -131.06710 | 36088 ft | 463 kts | 287° |
| 2026-05-06 18:16 | 58.25537 | -131.18240 | 36120 ft | 464 kts | 287° |
| 2026-05-06 18:17 | 58.27699 | -131.29799 | 36101 ft | 463 kts | 287° |
| 2026-05-06 18:17 | 58.29837 | -131.41302 | 36116 ft | 462 kts | 287° |
| 2026-05-06 18:18 | 58.32088 | -131.52761 | 36132 ft | 463 kts | 289° |
| 2026-05-06 18:18 | 58.34996 | -131.63758 | 36138 ft | 466 kts | 295° |
| 2026-05-06 18:19 | 58.38040 | -131.74670 | 36135 ft | 466 kts | 295° |
| 2026-05-06 18:19 | 58.41061 | -131.85482 | 36134 ft | 464 kts | 295° |
| 2026-05-06 18:20 | 58.44084 | -131.96371 | 36136 ft | 464 kts | 295° |
| 2026-05-06 18:20 | 58.47100 | -132.07289 | 36153 ft | 465 kts | 294° |
| 2026-05-06 18:21 | 58.50115 | -132.18251 | 36166 ft | 466 kts | 294° |
| 2026-05-06 18:21 | 58.53119 | -132.29230 | 36154 ft | 464 kts | 294° |
| 2026-05-06 18:22 | 58.56097 | -132.40167 | 36173 ft | 464 kts | 294° |
| 2026-05-06 18:22 | 58.59076 | -132.51162 | 36191 ft | 466 kts | 294° |
| 2026-05-06 18:23 | 58.62052 | -132.62194 | 36188 ft | 465 kts | 294° |
| 2026-05-06 18:23 | 58.64995 | -132.73165 | 36188 ft | 465 kts | 294° |
| 2026-05-06 18:24 | 58.67947 | -132.84222 | 36199 ft | 465 kts | 294° |
| 2026-05-06 18:24 | 58.70888 | -132.95283 | 36210 ft | 465 kts | 294° |
| 2026-05-06 18:25 | 58.73822 | -133.06378 | 36211 ft | 465 kts | 293° |
| 2026-05-06 18:25 | 58.76743 | -133.17481 | 36195 ft | 465 kts | 293° |
| 2026-05-06 18:26 | 58.79661 | -133.28621 | 36201 ft | 466 kts | 293° |
| 2026-05-06 18:26 | 58.82580 | -133.39825 | 36227 ft | 468 kts | 293° |
| 2026-05-06 18:27 | 58.85492 | -133.51061 | 36209 ft | 467 kts | 293° |
| 2026-05-06 18:27 | 58.88390 | -133.62293 | 36191 ft | 466 kts | 293° |
| 2026-05-06 18:28 | 58.91274 | -133.73528 | 36176 ft | 466 kts | 293° |
| 2026-05-06 18:28 | 58.94132 | -133.84729 | 36201 ft | 468 kts | 293° |
| 2026-05-06 18:29 | 58.97009 | -133.96042 | 36176 ft | 467 kts | 292° |
| 2026-05-06 18:29 | 58.99863 | -134.07340 | 36177 ft | 466 kts | 292° |
| 2026-05-06 18:30 | 59.02707 | -134.18650 | 36158 ft | 466 kts | 292° |
| 2026-05-06 18:30 | 59.05546 | -134.29994 | 36176 ft | 467 kts | 292° |
| 2026-05-06 18:31 | 59.08377 | -134.41371 | 36175 ft | 467 kts | 292° |
| 2026-05-06 18:31 | 59.11201 | -134.52775 | 36181 ft | 467 kts | 292° |
| 2026-05-06 18:32 | 59.14013 | -134.64189 | 36174 ft | 468 kts | 292° |
| 2026-05-06 18:32 | 59.16800 | -134.75560 | 36167 ft | 468 kts | 292° |
| 2026-05-06 18:33 | 59.19592 | -134.87016 | 36165 ft | 468 kts | 292° |
| 2026-05-06 18:33 | 59.22385 | -134.98533 | 36161 ft | 469 kts | 291° |
| 2026-05-06 18:34 | 59.25163 | -135.10050 | 36165 ft | 468 kts | 291° |
| 2026-05-06 18:34 | 59.27931 | -135.21580 | 36141 ft | 467 kts | 291° |
| 2026-05-06 18:35 | 59.30681 | -135.33110 | 36156 ft | 469 kts | 291° |
| 2026-05-06 18:35 | 59.33422 | -135.44647 | 36163 ft | 470 kts | 291° |
| 2026-05-06 18:36 | 59.36167 | -135.56277 | 36152 ft | 470 kts | 291° |
| 2026-05-06 18:36 | 59.38895 | -135.67899 | 36141 ft | 468 kts | 291° |
| 2026-05-06 18:37 | 59.41167 | -135.77607 | 36140 ft | 467 kts | 290° |
| 2026-05-06 18:37 | 59.44303 | -135.91111 | 36162 ft | 468 kts | 291° |
| 2026-05-06 18:38 | 59.47006 | -136.02807 | 36131 ft | 470 kts | 290° |
| 2026-05-06 18:38 | 59.49691 | -136.14487 | 36098 ft | 467 kts | 290° |
| 2026-05-06 18:39 | 59.52356 | -136.26148 | 36135 ft | 468 kts | 290° |
| 2026-05-06 18:40 | 59.56362 | -136.43791 | 36143 ft | 470 kts | 290° |
| 2026-05-06 18:40 | 59.59014 | -136.55555 | 36132 ft | 468 kts | 290° |
| 2026-05-06 18:41 | 59.61643 | -136.67274 | 36152 ft | 467 kts | 290° |
| 2026-05-06 18:41 | 59.64251 | -136.78980 | 36125 ft | 468 kts | 290° |
| 2026-05-06 18:42 | 59.66863 | -136.90765 | 36134 ft | 468 kts | 290° |
| 2026-05-06 18:42 | 59.69472 | -137.02594 | 36130 ft | 469 kts | 289° |
| 2026-05-06 18:43 | 59.72073 | -137.14462 | 36122 ft | 469 kts | 289° |
| 2026-05-06 18:43 | 59.74660 | -137.26333 | 36141 ft | 469 kts | 289° |
| 2026-05-06 18:44 | 59.77240 | -137.38226 | 36133 ft | 469 kts | 289° |
| 2026-05-06 18:44 | 59.79807 | -137.50146 | 36147 ft | 470 kts | 289° |
| 2026-05-06 18:45 | 59.82375 | -137.62134 | 36156 ft | 471 kts | 289° |
| 2026-05-06 18:45 | 59.84933 | -137.74142 | 36141 ft | 470 kts | 289° |
| 2026-05-06 18:46 | 59.87474 | -137.86132 | 36160 ft | 470 kts | 289° |
| 2026-05-06 18:46 | 59.89989 | -137.98075 | 36156 ft | 471 kts | 289° |
| 2026-05-06 18:47 | 59.92520 | -138.10169 | 36166 ft | 473 kts | 288° |
| 2026-05-06 18:47 | 59.95041 | -138.22283 | 36143 ft | 472 kts | 288° |
| 2026-05-06 18:48 | 59.97550 | -138.34415 | 36159 ft | 472 kts | 288° |
| 2026-05-06 18:48 | 60.00048 | -138.46558 | 36139 ft | 473 kts | 288° |
| 2026-05-06 18:49 | 60.02526 | -138.58683 | 36164 ft | 474 kts | 288° |
| 2026-05-06 18:49 | 60.05011 | -138.70914 | 36147 ft | 475 kts | 288° |
| 2026-05-06 18:50 | 60.07483 | -138.83155 | 36144 ft | 474 kts | 288° |
| 2026-05-06 18:50 | 60.09913 | -138.95448 | 36150 ft | 474 kts | 285° |
| 2026-05-06 18:51 | 60.11746 | -139.08078 | 36166 ft | 470 kts | 277° |
| 2026-05-06 18:51 | 60.13108 | -139.20938 | 36142 ft | 472 kts | 278° |
| 2026-05-06 18:52 | 60.14456 | -139.33808 | 36148 ft | 471 kts | 278° |
| 2026-05-06 18:52 | 60.15799 | -139.46667 | 36172 ft | 471 kts | 278° |
| 2026-05-06 18:53 | 60.17134 | -139.59586 | 36177 ft | 473 kts | 278° |
| 2026-05-06 18:53 | 60.18238 | -139.70355 | 36155 ft | 473 kts | 278° |
| 2026-05-06 18:54 | 60.19758 | -139.85372 | 36137 ft | 471 kts | 278° |
| 2026-05-06 18:54 | 60.21054 | -139.98297 | 36138 ft | 472 kts | 278° |
| 2026-05-06 18:55 | 60.22131 | -140.09160 | 36152 ft | 473 kts | 278° |
| 2026-05-06 18:55 | 60.23402 | -140.22082 | 36156 ft | 473 kts | 278° |
| 2026-05-06 18:56 | 60.24665 | -140.35074 | 36144 ft | 473 kts | 277° |
| 2026-05-06 18:56 | 60.25914 | -140.48069 | 36120 ft | 473 kts | 277° |
| 2026-05-06 18:57 | 60.27153 | -140.61094 | 36130 ft | 473 kts | 277° |
| 2026-05-06 18:57 | 60.28381 | -140.74140 | 36120 ft | 474 kts | 277° |
| 2026-05-06 18:58 | 60.29594 | -140.87188 | 36113 ft | 473 kts | 277° |
| 2026-05-06 18:58 | 60.30791 | -141.00202 | 36089 ft | 471 kts | 277° |
| 2026-05-06 18:59 | 60.31973 | -141.13187 | 36135 ft | 476 kts | 277° |
| 2026-05-06 18:59 | 60.33156 | -141.26356 | 36130 ft | 476 kts | 277° |
| 2026-05-06 19:00 | 60.34320 | -141.39466 | 36102 ft | 473 kts | 277° |
| 2026-05-06 19:00 | 60.35468 | -141.52531 | 36101 ft | 473 kts | 277° |
| 2026-05-06 19:01 | 60.36605 | -141.65655 | 36096 ft | 476 kts | 277° |
| 2026-05-06 19:01 | 60.37736 | -141.78851 | 36091 ft | 476 kts | 277° |
| 2026-05-06 19:02 | 60.38853 | -141.92036 | 36088 ft | 475 kts | 276° |
| 2026-05-06 19:02 | 60.39946 | -142.05122 | 36078 ft | 475 kts | 276° |
| 2026-05-06 19:03 | 60.41036 | -142.18310 | 36076 ft | 476 kts | 276° |
| 2026-05-06 19:03 | 60.42112 | -142.31527 | 36082 ft | 477 kts | 276° |
| 2026-05-06 19:04 | 60.43181 | -142.44788 | 36080 ft | 477 kts | 276° |
| 2026-05-06 19:04 | 60.44234 | -142.58056 | 36082 ft | 476 kts | 276° |
| 2026-05-06 19:05 | 60.45272 | -142.71305 | 36066 ft | 476 kts | 276° |
| 2026-05-06 19:05 | 60.46298 | -142.84568 | 36057 ft | 476 kts | 276° |
| 2026-05-06 19:06 | 60.47311 | -142.97842 | 36074 ft | 478 kts | 276° |
| 2026-05-06 19:06 | 60.48315 | -143.11167 | 36063 ft | 478 kts | 276° |
| 2026-05-06 19:07 | 60.49303 | -143.24502 | 36064 ft | 477 kts | 276° |
| 2026-05-06 19:07 | 60.50278 | -143.37820 | 36045 ft | 477 kts | 276° |
| 2026-05-06 19:08 | 60.51240 | -143.51145 | 36054 ft | 478 kts | 275° |
| 2026-05-06 19:08 | 60.52189 | -143.64509 | 36051 ft | 479 kts | 275° |
| 2026-05-06 19:09 | 60.53128 | -143.77891 | 36057 ft | 479 kts | 275° |
| 2026-05-06 19:09 | 60.54052 | -143.91285 | 36057 ft | 478 kts | 275° |
| 2026-05-06 19:10 | 60.54961 | -144.04658 | 36051 ft | 478 kts | 275° |
| 2026-05-06 19:10 | 60.55852 | -144.17974 | 36047 ft | 479 kts | 275° |
| 2026-05-06 19:11 | 60.56736 | -144.31392 | 36048 ft | 479 kts | 275° |
| 2026-05-06 19:11 | 60.57608 | -144.44826 | 36055 ft | 479 kts | 275° |
| 2026-05-06 19:12 | 60.58463 | -144.58250 | 36050 ft | 478 kts | 275° |
| 2026-05-06 19:12 | 60.59308 | -144.71686 | 36059 ft | 479 kts | 275° |
| 2026-05-06 19:13 | 60.60139 | -144.85149 | 36044 ft | 480 kts | 275° |
| 2026-05-06 19:13 | 60.60957 | -144.98626 | 36029 ft | 479 kts | 275° |
| 2026-05-06 19:14 | 60.61761 | -145.12089 | 36033 ft | 479 kts | 275° |
| 2026-05-06 19:14 | 60.62552 | -145.25559 | 36031 ft | 479 kts | 275° |
| 2026-05-06 19:15 | 60.63325 | -145.38985 | 36034 ft | 480 kts | 274° |
| 2026-05-06 19:15 | 60.64091 | -145.52513 | 36032 ft | 480 kts | 274° |
| 2026-05-06 19:16 | 60.64840 | -145.66007 | 36029 ft | 479 kts | 274° |
| 2026-05-06 19:16 | 60.65571 | -145.79424 | 36036 ft | 479 kts | 274° |
| 2026-05-06 19:17 | 60.66298 | -145.92958 | 36038 ft | 481 kts | 275° |
| 2026-05-06 19:17 | 60.67376 | -146.06412 | 36033 ft | 482 kts | 282° |
| 2026-05-06 19:18 | 60.68881 | -146.19731 | 36032 ft | 481 kts | 281° |
| 2026-05-06 19:18 | 60.70373 | -146.33019 | 36031 ft | 479 kts | 281° |
| 2026-05-06 19:19 | 60.71837 | -146.46299 | 36039 ft | 480 kts | 281° |
| 2026-05-06 19:19 | 60.73293 | -146.59634 | 36039 ft | 481 kts | 281° |
| 2026-05-06 19:20 | 60.74739 | -146.72995 | 36041 ft | 481 kts | 280° |
| 2026-05-06 19:20 | 60.76169 | -146.86359 | 36023 ft | 480 kts | 280° |
| 2026-05-06 19:21 | 60.77585 | -146.99719 | 36013 ft | 480 kts | 280° |
| 2026-05-06 19:21 | 60.78987 | -147.13085 | 36023 ft | 481 kts | 280° |
| 2026-05-06 19:22 | 60.80376 | -147.26479 | 36020 ft | 481 kts | 280° |
| 2026-05-06 19:22 | 60.81748 | -147.39826 | 36020 ft | 480 kts | 280° |
| 2026-05-06 19:23 | 60.83109 | -147.53232 | 36015 ft | 480 kts | 280° |
| 2026-05-06 19:23 | 60.84458 | -147.66640 | 36011 ft | 480 kts | 280° |
| 2026-05-06 19:24 | 60.85796 | -147.80090 | 36010 ft | 481 kts | 280° |
| 2026-05-06 19:24 | 60.87119 | -147.93535 | 36008 ft | 480 kts | 279° |
| 2026-05-06 19:25 | 60.88427 | -148.06972 | 36010 ft | 480 kts | 279° |
| 2026-05-06 19:25 | 60.89722 | -148.20443 | 35998 ft | 480 kts | 279° |
| 2026-05-06 19:26 | 60.91004 | -148.33922 | 36006 ft | 480 kts | 279° |
| 2026-05-06 19:26 | 60.92267 | -148.47335 | 36001 ft | 480 kts | 279° |
| 2026-05-06 19:27 | 60.93521 | -148.60825 | 35991 ft | 480 kts | 279° |
| 2026-05-06 19:27 | 60.94761 | -148.74323 | 35992 ft | 480 kts | 279° |
| 2026-05-06 19:28 | 60.95989 | -148.87831 | 35977 ft | 480 kts | 279° |
| 2026-05-06 19:28 | 60.97204 | -149.01347 | 35972 ft | 480 kts | 279° |
| 2026-05-06 19:29 | 60.98403 | -149.14870 | 35977 ft | 480 kts | 279° |
| 2026-05-06 19:29 | 60.99576 | -149.28419 | 35962 ft | 480 kts | 278° |
| 2026-05-06 19:30 | 61.01016 | -149.41856 | 35971 ft | 480 kts | 282° |
| 2026-05-06 19:30 | 61.02556 | -149.55255 | 35963 ft | 481 kts | 282° |
| 2026-05-06 19:31 | 61.04092 | -149.68595 | 35967 ft | 481 kts | 282° |
| 2026-05-06 19:31 | 61.06376 | -149.88750 | 35957 ft | 480 kts | 282° |
| 2026-05-06 19:32 | 61.07879 | -150.02172 | 35954 ft | 479 kts | 282° |
| 2026-05-06 19:32 | 61.09366 | -150.15595 | 35965 ft | 480 kts | 282° |
| 2026-05-06 19:33 | 61.10845 | -150.29065 | 35958 ft | 480 kts | 282° |
| 2026-05-06 19:33 | 61.12301 | -150.42465 | 35955 ft | 479 kts | 282° |
| 2026-05-06 19:34 | 61.13748 | -150.55921 | 35959 ft | 479 kts | 282° |
| 2026-05-06 19:34 | 61.15184 | -150.69403 | 35957 ft | 479 kts | 282° |
| 2026-05-06 19:35 | 61.16607 | -150.82902 | 35964 ft | 480 kts | 282° |
| 2026-05-06 19:35 | 61.18015 | -150.96410 | 35956 ft | 479 kts | 281° |
| 2026-05-06 19:36 | 61.19408 | -151.09903 | 35961 ft | 478 kts | 281° |
| 2026-05-06 19:36 | 61.20787 | -151.23408 | 35963 ft | 479 kts | 281° |
| 2026-05-06 19:37 | 61.22153 | -151.36928 | 35962 ft | 479 kts | 281° |
| 2026-05-06 19:37 | 61.23282 | -151.48203 | 35958 ft | 479 kts | 281° |
| 2026-05-06 19:38 | 61.24839 | -151.63946 | 35961 ft | 478 kts | 281° |
| 2026-05-06 19:38 | 61.26164 | -151.77489 | 35960 ft | 478 kts | 281° |
| 2026-05-06 19:39 | 61.27476 | -151.91052 | 35963 ft | 479 kts | 281° |
| 2026-05-06 19:39 | 61.28378 | -152.04753 | 35960 ft | 478 kts | 271° |
| 2026-05-06 19:40 | 61.28444 | -152.18570 | 35967 ft | 478 kts | 271° |
| 2026-05-06 19:40 | 61.28500 | -152.32387 | 35968 ft | 478 kts | 270° |
| 2026-05-06 19:41 | 61.28551 | -152.46213 | 35965 ft | 478 kts | 270° |
| 2026-05-06 19:41 | 61.28584 | -152.60007 | 35966 ft | 477 kts | 270° |
| 2026-05-06 19:42 | 61.28602 | -152.71469 | 35979 ft | 477 kts | 270° |
| 2026-05-06 19:42 | 61.28610 | -152.85263 | 35990 ft | 477 kts | 270° |
| 2026-05-06 19:43 | 61.28605 | -152.99073 | 35989 ft | 477 kts | 270° |
| 2026-05-06 19:43 | 61.28585 | -153.12848 | 35997 ft | 476 kts | 270° |
| 2026-05-06 19:44 | 61.28552 | -153.26609 | 36002 ft | 476 kts | 270° |
| 2026-05-06 19:44 | 61.28504 | -153.40362 | 36024 ft | 477 kts | 270° |
| 2026-05-06 19:45 | 61.28443 | -153.54160 | 36037 ft | 477 kts | 270° |
| 2026-05-06 19:45 | 61.28368 | -153.67921 | 36036 ft | 475 kts | 269° |
| 2026-05-06 19:46 | 61.28280 | -153.81678 | 36036 ft | 475 kts | 269° |
| 2026-05-06 19:46 | 61.28177 | -153.95348 | 36040 ft | 476 kts | 269° |
| 2026-05-06 19:47 | 61.28061 | -154.08970 | 36040 ft | 476 kts | 269° |
| 2026-05-06 19:47 | 61.27931 | -154.22712 | 36051 ft | 475 kts | 269° |
| 2026-05-06 19:48 | 61.27787 | -154.36452 | 36060 ft | 475 kts | 269° |
| 2026-05-06 19:48 | 61.27628 | -154.50195 | 36060 ft | 476 kts | 269° |
| 2026-05-06 19:49 | 61.27456 | -154.63939 | 36060 ft | 475 kts | 269° |
| 2026-05-06 19:49 | 61.27271 | -154.77645 | 36045 ft | 474 kts | 269° |
| 2026-05-06 19:50 | 61.27071 | -154.91352 | 36049 ft | 475 kts | 269° |
| 2026-05-06 19:50 | 61.26858 | -155.05074 | 36051 ft | 475 kts | 269° |
| 2026-05-06 19:51 | 61.26630 | -155.18801 | 36041 ft | 475 kts | 269° |
| 2026-05-06 19:51 | 61.26389 | -155.32503 | 36029 ft | 474 kts | 269° |
| 2026-05-06 19:52 | 61.26135 | -155.46183 | 36025 ft | 474 kts | 268° |
| 2026-05-06 19:52 | 61.25867 | -155.59868 | 36023 ft | 475 kts | 268° |
| 2026-05-06 19:53 | 61.25584 | -155.73563 | 36028 ft | 474 kts | 268° |
| 2026-05-06 19:53 | 61.25291 | -155.87164 | 36038 ft | 473 kts | 268° |
| 2026-05-06 19:54 | 61.24973 | -156.00814 | 36052 ft | 473 kts | 271° |
| 2026-05-06 19:54 | 61.25089 | -156.14555 | 36072 ft | 473 kts | 271° |
| 2026-05-06 19:55 | 61.25161 | -156.28145 | 36081 ft | 474 kts | 271° |
| 2026-05-06 19:55 | 61.25219 | -156.41811 | 36092 ft | 473 kts | 271° |
| 2026-05-06 19:56 | 61.25263 | -156.55450 | 36092 ft | 472 kts | 271° |
| 2026-05-06 19:56 | 61.25293 | -156.69101 | 36104 ft | 473 kts | 271° |
| 2026-05-06 19:57 | 61.25309 | -156.82768 | 36108 ft | 473 kts | 271° |
| 2026-05-06 19:57 | 61.25312 | -156.96428 | 36105 ft | 472 kts | 271° |
| 2026-05-06 19:58 | 61.25300 | -157.10078 | 36108 ft | 472 kts | 271° |
| 2026-05-06 19:58 | 61.25275 | -157.23725 | 36109 ft | 473 kts | 270° |
| 2026-05-06 19:59 | 61.25237 | -157.37403 | 36110 ft | 473 kts | 270° |
| 2026-05-06 19:59 | 61.25184 | -157.51068 | 36114 ft | 473 kts | 270° |
| 2026-05-06 20:00 | 61.25118 | -157.64721 | 36119 ft | 472 kts | 270° |
| 2026-05-06 20:00 | 61.25038 | -157.78361 | 36118 ft | 473 kts | 270° |
| 2026-05-06 20:01 | 61.24945 | -157.92021 | 36128 ft | 473 kts | 270° |
| 2026-05-06 20:01 | 61.24838 | -158.05600 | 36122 ft | 473 kts | 270° |
| 2026-05-06 20:02 | 61.24716 | -158.19257 | 36125 ft | 473 kts | 270° |
| 2026-05-06 20:02 | 61.24582 | -158.32922 | 36134 ft | 473 kts | 270° |
| 2026-05-06 20:03 | 61.24434 | -158.46588 | 36134 ft | 473 kts | 270° |
| 2026-05-06 20:03 | 61.24271 | -158.60247 | 36136 ft | 473 kts | 269° |
| 2026-05-06 20:04 | 61.24096 | -158.73893 | 36142 ft | 473 kts | 269° |
| 2026-05-06 20:04 | 61.23905 | -158.87542 | 36138 ft | 473 kts | 269° |
| 2026-05-06 20:05 | 61.23703 | -159.01182 | 36145 ft | 473 kts | 269° |
| 2026-05-06 20:05 | 61.23485 | -159.14851 | 36140 ft | 473 kts | 269° |
| 2026-05-06 20:06 | 61.23255 | -159.28440 | 36141 ft | 473 kts | 269° |
| 2026-05-06 20:06 | 61.23010 | -159.42103 | 36141 ft | 473 kts | 269° |
| 2026-05-06 20:07 | 61.22753 | -159.55740 | 36144 ft | 473 kts | 269° |
| 2026-05-06 20:07 | 61.22480 | -159.69397 | 36145 ft | 474 kts | 269° |
| 2026-05-06 20:08 | 61.22193 | -159.83084 | 36156 ft | 475 kts | 269° |
| 2026-05-06 20:08 | 61.21892 | -159.96789 | 36159 ft | 475 kts | 269° |
| 2026-05-06 20:09 | 61.21578 | -160.10465 | 36155 ft | 474 kts | 268° |
| 2026-05-06 20:09 | 61.21251 | -160.24135 | 36147 ft | 475 kts | 268° |
| 2026-05-06 20:10 | 61.20910 | -160.37747 | 36149 ft | 475 kts | 268° |
| 2026-05-06 20:10 | 61.20554 | -160.51443 | 36147 ft | 476 kts | 268° |
| 2026-05-06 20:11 | 61.20184 | -160.65140 | 36146 ft | 475 kts | 268° |
| 2026-05-06 20:11 | 61.19812 | -160.78420 | 36146 ft | 475 kts | 268° |
| 2026-05-06 20:12 | 61.19414 | -160.92129 | 36147 ft | 476 kts | 268° |
| 2026-05-06 20:12 | 61.19002 | -161.05861 | 36150 ft | 477 kts | 268° |
| 2026-05-06 20:13 | 61.18576 | -161.19565 | 36150 ft | 476 kts | 268° |
| 2026-05-06 20:13 | 61.18140 | -161.33164 | 36150 ft | 476 kts | 268° |
| 2026-05-06 20:14 | 61.17687 | -161.46857 | 36156 ft | 477 kts | 268° |
| 2026-05-06 20:14 | 61.17219 | -161.60573 | 36163 ft | 477 kts | 267° |
| 2026-05-06 20:15 | 61.16738 | -161.74288 | 36168 ft | 477 kts | 267° |
| 2026-05-06 20:15 | 61.16242 | -161.87978 | 36174 ft | 476 kts | 267° |
| 2026-05-06 20:16 | 61.15733 | -162.01676 | 36180 ft | 477 kts | 267° |
| 2026-05-06 20:16 | 61.15210 | -162.15388 | 36179 ft | 478 kts | 267° |
| 2026-05-06 20:17 | 61.14675 | -162.29023 | 36172 ft | 477 kts | 267° |
| 2026-05-06 20:17 | 61.14125 | -162.42698 | 36174 ft | 477 kts | 267° |
| 2026-05-06 20:18 | 61.13559 | -162.56398 | 36179 ft | 478 kts | 267° |
| 2026-05-06 20:18 | 61.12981 | -162.70098 | 36171 ft | 478 kts | 266° |
| 2026-05-06 20:19 | 61.12386 | -162.83808 | 36182 ft | 478 kts | 266° |
| 2026-05-06 20:19 | 61.11671 | -162.97469 | 36173 ft | 478 kts | 263° |
| 2026-05-06 20:20 | 61.10156 | -163.10889 | 36197 ft | 481 kts | 256° |
| 2026-05-06 20:20 | 61.08311 | -163.24215 | 36182 ft | 483 kts | 256° |
| 2026-05-06 20:21 | 61.06435 | -163.37516 | 36172 ft | 482 kts | 256° |
| 2026-05-06 20:21 | 61.04568 | -163.50692 | 36173 ft | 481 kts | 256° |
| 2026-05-06 20:22 | 61.02678 | -163.63939 | 36175 ft | 482 kts | 256° |
| 2026-05-06 20:22 | 61.00767 | -163.77212 | 36172 ft | 483 kts | 256° |
| 2026-05-06 20:23 | 60.98843 | -163.90469 | 36164 ft | 482 kts | 256° |
| 2026-05-06 20:23 | 60.96910 | -164.03690 | 36166 ft | 482 kts | 255° |
| 2026-05-06 20:24 | 60.94962 | -164.16903 | 36166 ft | 482 kts | 255° |
| 2026-05-06 20:24 | 60.93009 | -164.30047 | 36168 ft | 483 kts | 255° |
| 2026-05-06 20:25 | 60.91032 | -164.43252 | 36166 ft | 483 kts | 255° |
| 2026-05-06 20:25 | 60.89045 | -164.56420 | 36168 ft | 482 kts | 255° |
| 2026-05-06 20:26 | 60.87044 | -164.69579 | 36176 ft | 483 kts | 255° |
| 2026-05-06 20:26 | 60.85041 | -164.82649 | 36177 ft | 484 kts | 255° |
| 2026-05-06 20:27 | 60.83012 | -164.95796 | 36179 ft | 483 kts | 255° |
| 2026-05-06 20:27 | 60.80971 | -165.08906 | 36178 ft | 482 kts | 255° |
| 2026-05-06 20:28 | 60.78919 | -165.22001 | 36177 ft | 483 kts | 255° |
| 2026-05-06 20:28 | 60.76851 | -165.35086 | 36176 ft | 484 kts | 255° |
| 2026-05-06 20:29 | 60.74768 | -165.48176 | 36167 ft | 483 kts | 255° |
| 2026-05-06 20:29 | 60.72677 | -165.61217 | 36158 ft | 483 kts | 255° |
| 2026-05-06 20:30 | 60.69873 | -165.78556 | 36154 ft | 483 kts | 254° |
| 2026-05-06 20:31 | 60.67747 | -165.91588 | 36148 ft | 484 kts | 254° |
| 2026-05-06 20:31 | 60.65609 | -166.04607 | 36155 ft | 483 kts | 254° |
| 2026-05-06 20:32 | 60.63461 | -166.17587 | 36155 ft | 483 kts | 254° |
| 2026-05-06 20:32 | 60.61303 | -166.30534 | 36154 ft | 483 kts | 254° |
| 2026-05-06 20:33 | 60.59132 | -166.43475 | 36162 ft | 488 kts | 254° |
| 2026-05-06 20:33 | 60.56910 | -166.56613 | 36137 ft | 488 kts | 254° |
| 2026-05-06 20:34 | 60.54720 | -166.69523 | 36163 ft | 484 kts | 254° |
| 2026-05-06 20:34 | 60.52488 | -166.82476 | 36158 ft | 486 kts | 253° |
| 2026-05-06 20:35 | 60.50249 | -166.95472 | 36153 ft | 487 kts | 253° |
| 2026-05-06 20:35 | 60.47997 | -167.08419 | 36150 ft | 486 kts | 253° |
| 2026-05-06 20:36 | 60.45738 | -167.21321 | 36151 ft | 486 kts | 253° |
| 2026-05-06 20:36 | 60.43464 | -167.34220 | 36153 ft | 486 kts | 253° |
| 2026-05-06 20:37 | 60.41175 | -167.47116 | 36166 ft | 487 kts | 253° |
| 2026-05-06 20:37 | 60.38873 | -167.59994 | 36156 ft | 486 kts | 253° |
| 2026-05-06 20:38 | 60.36562 | -167.72837 | 36164 ft | 486 kts | 253° |
| 2026-05-06 20:38 | 60.34254 | -167.85579 | 36161 ft | 486 kts | 253° |
| 2026-05-06 20:39 | 60.31905 | -167.98393 | 36160 ft | 487 kts | 252° |
| 2026-05-06 20:39 | 60.29601 | -168.11222 | 36163 ft | 486 kts | 253° |
| 2026-05-06 20:40 | 60.27289 | -168.24027 | 36159 ft | 486 kts | 253° |
| 2026-05-06 20:40 | 60.24977 | -168.36806 | 36159 ft | 486 kts | 253° |
| 2026-05-06 20:41 | 60.22644 | -168.49596 | 36160 ft | 486 kts | 253° |
| 2026-05-06 20:41 | 60.20317 | -168.62276 | 36164 ft | 486 kts | 252° |
| 2026-05-06 20:42 | 60.17963 | -168.75011 | 36159 ft | 485 kts | 252° |
| 2026-05-06 20:42 | 60.15602 | -168.87709 | 36163 ft | 485 kts | 252° |
| 2026-05-06 20:43 | 60.13225 | -169.00401 | 36161 ft | 486 kts | 252° |
| 2026-05-06 20:43 | 60.10831 | -169.13102 | 36163 ft | 486 kts | 252° |
| 2026-05-06 20:44 | 60.08427 | -169.25777 | 36167 ft | 486 kts | 252° |
| 2026-05-06 20:44 | 60.06014 | -169.38411 | 36159 ft | 486 kts | 252° |
| 2026-05-06 20:45 | 60.03602 | -169.50965 | 36170 ft | 486 kts | 252° |
| 2026-05-06 20:45 | 60.01159 | -169.63591 | 36167 ft | 487 kts | 252° |
| 2026-05-06 20:46 | 59.98703 | -169.76208 | 36162 ft | 486 kts | 251° |
| 2026-05-06 20:46 | 59.96239 | -169.88794 | 36167 ft | 486 kts | 251° |
| 2026-05-06 20:47 | 59.93763 | -170.01349 | 36173 ft | 487 kts | 251° |
| 2026-05-06 20:47 | 59.91270 | -170.13919 | 36167 ft | 487 kts | 251° |
| 2026-05-06 20:48 | 59.88768 | -170.26450 | 36166 ft | 486 kts | 251° |
| 2026-05-06 20:48 | 59.86258 | -170.38946 | 36166 ft | 486 kts | 251° |
| 2026-05-06 20:49 | 59.83733 | -170.51443 | 36165 ft | 487 kts | 251° |
| 2026-05-06 20:49 | 59.81205 | -170.63865 | 36166 ft | 487 kts | 250° |
| 2026-05-06 20:50 | 59.78651 | -170.76348 | 36162 ft | 487 kts | 250° |
| 2026-05-06 20:50 | 59.76094 | -170.88766 | 36164 ft | 486 kts | 250° |
| 2026-05-06 20:51 | 59.73527 | -171.01160 | 36165 ft | 486 kts | 250° |
| 2026-05-06 20:51 | 59.70938 | -171.13577 | 36165 ft | 487 kts | 250° |
| 2026-05-06 20:52 | 59.68361 | -171.25871 | 36167 ft | 486 kts | 250° |
| 2026-05-06 20:52 | 59.65757 | -171.38214 | 36160 ft | 485 kts | 249° |
| 2026-05-06 20:53 | 59.63144 | -171.50528 | 36164 ft | 485 kts | 249° |
| 2026-05-06 20:53 | 59.60520 | -171.62819 | 36166 ft | 485 kts | 249° |
| 2026-05-06 20:54 | 59.57889 | -171.75068 | 36163 ft | 484 kts | 249° |
| 2026-05-06 20:54 | 59.55207 | -171.87240 | 36163 ft | 483 kts | 248° |
| 2026-05-06 20:55 | 59.52724 | -171.99543 | 36169 ft | 483 kts | 250° |
| 2026-05-06 20:55 | 59.50218 | -172.11812 | 36166 ft | 483 kts | 250° |
| 2026-05-06 20:56 | 59.47727 | -172.23968 | 36163 ft | 481 kts | 250° |
| 2026-05-06 20:56 | 59.45219 | -172.36126 | 36163 ft | 480 kts | 250° |
| 2026-05-06 20:57 | 59.42694 | -172.48290 | 36167 ft | 479 kts | 250° |
| 2026-05-06 20:57 | 59.40164 | -172.60408 | 36162 ft | 479 kts | 249° |
| 2026-05-06 20:58 | 59.37624 | -172.72497 | 36163 ft | 478 kts | 249° |
| 2026-05-06 20:58 | 59.35098 | -172.84453 | 36161 ft | 477 kts | 249° |
| 2026-05-06 20:59 | 59.32546 | -172.96458 | 36166 ft | 477 kts | 249° |
| 2026-05-06 20:59 | 59.29978 | -173.08473 | 36172 ft | 478 kts | 249° |
| 2026-05-06 21:00 | 59.27403 | -173.20446 | 36159 ft | 477 kts | 249° |
| 2026-05-06 21:00 | 59.24819 | -173.32394 | 36163 ft | 476 kts | 249° |
| 2026-05-06 21:01 | 59.22230 | -173.44297 | 36162 ft | 477 kts | 249° |
| 2026-05-06 21:01 | 59.19623 | -173.56215 | 36160 ft | 477 kts | 248° |
| 2026-05-06 21:02 | 59.17004 | -173.68117 | 36157 ft | 477 kts | 248° |
| 2026-05-06 21:02 | 59.14390 | -173.79935 | 36161 ft | 477 kts | 248° |
| 2026-05-06 21:03 | 59.11748 | -173.91807 | 36156 ft | 478 kts | 248° |
| 2026-05-06 21:03 | 59.09091 | -174.03684 | 36154 ft | 479 kts | 248° |
| 2026-05-06 21:04 | 59.06401 | -174.15545 | 36153 ft | 479 kts | 246° |
| 2026-05-06 21:04 | 59.03817 | -174.27359 | 36151 ft | 478 kts | 248° |
| 2026-05-06 21:05 | 59.01223 | -174.39257 | 36152 ft | 479 kts | 248° |
| 2026-05-06 21:05 | 58.98625 | -174.51159 | 36157 ft | 479 kts | 248° |
| 2026-05-06 21:06 | 58.96008 | -174.63055 | 36150 ft | 479 kts | 248° |
| 2026-05-06 21:06 | 58.93383 | -174.74924 | 36149 ft | 479 kts | 247° |
| 2026-05-06 21:07 | 58.90741 | -174.86799 | 36148 ft | 480 kts | 247° |
| 2026-05-06 21:07 | 58.88089 | -174.98658 | 36147 ft | 481 kts | 247° |
| 2026-05-06 21:08 | 58.85420 | -175.10521 | 36145 ft | 481 kts | 247° |
| 2026-05-06 21:08 | 58.82764 | -175.22263 | 36141 ft | 480 kts | 246° |
| 2026-05-06 21:09 | 58.80080 | -175.34062 | 36142 ft | 480 kts | 246° |
| 2026-05-06 21:09 | 58.77381 | -175.45858 | 36138 ft | 481 kts | 246° |
| 2026-05-06 21:10 | 58.74677 | -175.57616 | 36136 ft | 480 kts | 246° |
| 2026-05-06 21:10 | 58.71964 | -175.69349 | 36134 ft | 480 kts | 246° |
| 2026-05-06 21:11 | 58.69235 | -175.81083 | 36135 ft | 480 kts | 245° |
| 2026-05-06 21:11 | 58.66502 | -175.92768 | 36130 ft | 480 kts | 245° |
| 2026-05-06 21:12 | 58.63754 | -176.04461 | 36127 ft | 480 kts | 245° |
| 2026-05-06 21:12 | 58.61009 | -176.16070 | 36127 ft | 481 kts | 245° |
| 2026-05-06 21:13 | 58.58233 | -176.27752 | 36122 ft | 481 kts | 245° |
| 2026-05-06 21:13 | 58.55447 | -176.39413 | 36119 ft | 482 kts | 244° |
| 2026-05-06 21:14 | 58.52644 | -176.51079 | 36120 ft | 482 kts | 244° |
| 2026-05-06 21:14 | 58.49830 | -176.62734 | 36113 ft | 482 kts | 244° |
| 2026-05-06 21:15 | 58.47004 | -176.74373 | 36113 ft | 483 kts | 244° |
| 2026-05-06 21:15 | 58.44162 | -176.86014 | 36115 ft | 483 kts | 243° |
| 2026-05-06 21:16 | 58.41309 | -176.97639 | 36105 ft | 484 kts | 244° |
| 2026-05-06 21:16 | 58.38443 | -177.09234 | 36105 ft | 484 kts | 243° |
| 2026-05-06 21:17 | 58.35593 | -177.20788 | 36098 ft | 484 kts | 242° |
| 2026-05-06 21:17 | 58.33193 | -177.30510 | 36105 ft | 484 kts | 242° |
| 2026-05-06 21:18 | 58.30305 | -177.42100 | 36094 ft | 485 kts | 243° |
| 2026-05-06 21:18 | 58.27417 | -177.53623 | 36093 ft | 485 kts | 243° |
| 2026-05-06 21:19 | 58.24503 | -177.65179 | 36090 ft | 486 kts | 243° |
| 2026-05-06 21:19 | 58.21561 | -177.76770 | 36088 ft | 488 kts | 243° |
| 2026-05-06 21:20 | 58.18603 | -177.88361 | 36077 ft | 488 kts | 242° |
| 2026-05-06 21:20 | 58.15661 | -177.99931 | 36079 ft | 488 kts | 242° |
| 2026-05-06 21:21 | 58.12690 | -178.11480 | 36078 ft | 489 kts | 242° |
| 2026-05-06 21:21 | 58.09717 | -178.22978 | 36073 ft | 490 kts | 241° |
| 2026-05-06 21:22 | 58.06706 | -178.34568 | 36070 ft | 491 kts | 241° |
| 2026-05-06 21:22 | 58.03689 | -178.46120 | 36065 ft | 491 kts | 241° |
| 2026-05-06 21:23 | 58.00660 | -178.57661 | 36062 ft | 491 kts | 241° |
| 2026-05-06 21:23 | 57.97608 | -178.69229 | 36058 ft | 493 kts | 240° |
| 2026-05-06 21:24 | 57.94543 | -178.80790 | 36054 ft | 494 kts | 240° |
| 2026-05-06 21:24 | 57.91461 | -178.92351 | 36052 ft | 494 kts | 240° |
| 2026-05-06 21:25 | 57.88392 | -179.03807 | 36045 ft | 494 kts | 240° |
| 2026-05-06 21:25 | 57.85288 | -179.15332 | 36043 ft | 495 kts | 240° |
| 2026-05-06 21:26 | 57.82160 | -179.26886 | 36037 ft | 496 kts | 240° |
| 2026-05-06 21:26 | 57.79027 | -179.38408 | 36036 ft | 496 kts | 239° |
| 2026-05-06 21:27 | 57.75881 | -179.49913 | 36026 ft | 496 kts | 239° |
| 2026-05-06 21:27 | 57.72726 | -179.61392 | 36022 ft | 496 kts | 239° |
| 2026-05-06 21:28 | 57.69558 | -179.72866 | 36016 ft | 496 kts | 239° |
| 2026-05-06 21:28 | 57.66378 | -179.84321 | 36005 ft | 497 kts | 239° |
| 2026-05-06 21:29 | 57.63212 | -179.95671 | 35999 ft | 496 kts | 239° |
| 2026-05-06 21:29 | 57.60014 | 179.92923 | 35995 ft | 496 kts | 238° |
| 2026-05-06 21:30 | 57.56804 | 179.81530 | 35997 ft | 497 kts | 238° |
| 2026-05-06 21:30 | 57.53582 | 179.70149 | 35990 ft | 497 kts | 238° |
| 2026-05-06 21:31 | 57.50347 | 179.58779 | 35986 ft | 497 kts | 238° |
| 2026-05-06 21:31 | 57.47102 | 179.47429 | 35982 ft | 497 kts | 238° |
| 2026-05-06 21:32 | 57.43846 | 179.36105 | 35966 ft | 497 kts | 238° |
| 2026-05-06 21:32 | 57.38934 | 179.19113 | 35964 ft | 498 kts | 237° |
| 2026-05-06 21:33 | 57.35643 | 179.07799 | 35971 ft | 498 kts | 237° |
| 2026-05-06 21:33 | 57.32365 | 178.96582 | 35961 ft | 498 kts | 237° |
| 2026-05-06 21:34 | 57.29056 | 178.85320 | 35960 ft | 499 kts | 237° |
| 2026-05-06 21:34 | 57.25733 | 178.74057 | 35955 ft | 500 kts | 237° |
| 2026-05-06 21:35 | 57.22393 | 178.62797 | 35942 ft | 499 kts | 237° |
| 2026-05-06 21:35 | 57.19050 | 178.51577 | 35938 ft | 499 kts | 236° |
| 2026-05-06 21:36 | 57.15694 | 178.40372 | 35934 ft | 500 kts | 236° |
| 2026-05-06 21:36 | 57.12327 | 178.29183 | 35929 ft | 500 kts | 236° |
| 2026-05-06 21:37 | 57.08945 | 178.17995 | 35923 ft | 500 kts | 236° |
| 2026-05-06 21:37 | 57.05551 | 178.06819 | 35917 ft | 500 kts | 236° |
| 2026-05-06 21:38 | 57.02174 | 177.95758 | 35916 ft | 500 kts | 236° |
| 2026-05-06 21:38 | 56.98738 | 177.84548 | 35911 ft | 501 kts | 236° |
| 2026-05-06 21:39 | 56.95338 | 177.73515 | 35897 ft | 500 kts | 236° |
| 2026-05-06 21:39 | 56.91900 | 177.62408 | 35894 ft | 500 kts | 235° |
| 2026-05-06 21:40 | 56.88457 | 177.51337 | 35887 ft | 501 kts | 235° |
| 2026-05-06 21:40 | 56.84993 | 177.40240 | 35879 ft | 502 kts | 236° |
| 2026-05-06 21:41 | 56.81514 | 177.29206 | 35876 ft | 501 kts | 235° |
| 2026-05-06 21:41 | 56.78030 | 177.18205 | 35873 ft | 501 kts | 235° |
| 2026-05-06 21:42 | 56.74528 | 177.07209 | 35864 ft | 501 kts | 235° |
| 2026-05-06 21:42 | 56.71041 | 176.96314 | 35856 ft | 502 kts | 235° |
| 2026-05-06 21:43 | 56.67518 | 176.85350 | 35848 ft | 501 kts | 234° |
| 2026-05-06 21:43 | 56.63990 | 176.74427 | 35842 ft | 501 kts | 234° |
| 2026-05-06 21:44 | 56.60451 | 176.63517 | 35840 ft | 501 kts | 234° |
| 2026-05-06 21:44 | 56.56899 | 176.52617 | 35838 ft | 502 kts | 234° |
| 2026-05-06 21:45 | 56.53435 | 176.42033 | 35821 ft | 502 kts | 234° |
| 2026-05-06 21:45 | 56.49869 | 176.31189 | 35813 ft | 501 kts | 234° |
| 2026-05-06 21:46 | 56.46289 | 176.20349 | 35809 ft | 502 kts | 234° |
| 2026-05-06 21:46 | 56.42692 | 176.09508 | 35799 ft | 502 kts | 234° |
| 2026-05-06 21:47 | 56.39111 | 175.98764 | 35799 ft | 502 kts | 234° |
| 2026-05-06 21:47 | 56.35499 | 175.87974 | 35789 ft | 502 kts | 234° |
| 2026-05-06 21:48 | 56.31873 | 175.77189 | 35810 ft | 504 kts | 234° |
| 2026-05-06 21:48 | 56.28228 | 175.66403 | 35765 ft | 503 kts | 234° |
| 2026-05-06 21:49 | 56.24587 | 175.55672 | 35756 ft | 502 kts | 234° |
| 2026-05-06 21:49 | 56.20932 | 175.44952 | 35781 ft | 504 kts | 234° |
| 2026-05-06 21:50 | 56.17257 | 175.34211 | 35752 ft | 505 kts | 234° |
| 2026-05-06 21:50 | 56.13573 | 175.23501 | 35745 ft | 504 kts | 234° |
| 2026-05-06 21:51 | 56.09890 | 175.12836 | 35734 ft | 503 kts | 234° |
| 2026-05-06 21:51 | 56.06197 | 175.02192 | 35732 ft | 504 kts | 234° |
| 2026-05-06 21:52 | 56.02507 | 174.91600 | 35727 ft | 505 kts | 234° |
| 2026-05-06 21:52 | 55.98785 | 174.80965 | 35718 ft | 504 kts | 234° |
| 2026-05-06 21:53 | 55.95061 | 174.70372 | 35712 ft | 504 kts | 234° |
| 2026-05-06 21:53 | 55.91323 | 174.59783 | 35706 ft | 504 kts | 234° |
| 2026-05-06 21:54 | 55.87569 | 174.49199 | 35703 ft | 505 kts | 234° |
| 2026-05-06 21:54 | 55.83830 | 174.38695 | 35697 ft | 505 kts | 233° |
| 2026-05-06 21:55 | 55.80058 | 174.28150 | 35691 ft | 504 kts | 233° |
| 2026-05-06 21:55 | 55.76284 | 174.17643 | 35688 ft | 505 kts | 233° |
| 2026-05-06 21:56 | 55.72496 | 174.07145 | 35681 ft | 505 kts | 234° |
| 2026-05-06 21:56 | 55.68696 | 173.96654 | 35675 ft | 505 kts | 233° |
| 2026-05-06 21:57 | 55.64914 | 173.86261 | 35670 ft | 504 kts | 234° |
| 2026-05-06 21:57 | 55.61102 | 173.75830 | 35665 ft | 505 kts | 233° |
| 2026-05-06 21:58 | 55.57277 | 173.65408 | 35663 ft | 505 kts | 233° |
| 2026-05-06 21:58 | 55.53440 | 173.54997 | 35661 ft | 505 kts | 233° |
| 2026-05-06 21:59 | 55.49601 | 173.44623 | 35658 ft | 504 kts | 233° |
| 2026-05-06 21:59 | 55.45755 | 173.34277 | 35654 ft | 504 kts | 233° |
| 2026-05-06 22:00 | 55.41900 | 173.23947 | 35647 ft | 505 kts | 233° |
| 2026-05-06 22:00 | 55.38035 | 173.13637 | 35648 ft | 505 kts | 233° |
| 2026-05-06 22:01 | 55.34186 | 173.03410 | 35645 ft | 504 kts | 233° |
| 2026-05-06 22:01 | 55.30309 | 172.93157 | 35641 ft | 503 kts | 233° |
| 2026-05-06 22:02 | 55.26426 | 172.82923 | 35639 ft | 504 kts | 233° |
| 2026-05-06 22:02 | 55.22529 | 172.72701 | 35634 ft | 504 kts | 233° |
| 2026-05-06 22:03 | 55.18628 | 172.62504 | 35633 ft | 503 kts | 233° |
| 2026-05-06 22:03 | 55.14722 | 172.52342 | 35626 ft | 502 kts | 233° |
| 2026-05-06 22:04 | 55.10811 | 172.42206 | 35623 ft | 503 kts | 233° |
| 2026-05-06 22:04 | 55.06918 | 172.32171 | 35622 ft | 502 kts | 233° |
| 2026-05-06 22:05 | 55.03019 | 172.22076 | 35622 ft | 502 kts | 233° |
| 2026-05-06 22:05 | 54.99064 | 172.12016 | 35614 ft | 503 kts | 234° |
| 2026-05-06 22:06 | 54.95791 | 172.03667 | 35610 ft | 502 kts | 233° |
| 2026-05-06 22:06 | 54.91688 | 171.93871 | 35602 ft | 498 kts | 227° |
| 2026-05-06 22:07 | 54.87284 | 171.84571 | 35607 ft | 499 kts | 228° |
| 2026-05-06 22:07 | 54.82857 | 171.75252 | 35594 ft | 499 kts | 228° |
| 2026-05-06 22:08 | 54.78443 | 171.65969 | 35592 ft | 498 kts | 228° |
| 2026-05-06 22:08 | 54.74028 | 171.56719 | 35596 ft | 498 kts | 228° |
| 2026-05-06 22:09 | 54.69637 | 171.47553 | 35605 ft | 498 kts | 228° |
| 2026-05-06 22:09 | 54.65206 | 171.38340 | 35579 ft | 497 kts | 228° |
| 2026-05-06 22:10 | 54.60787 | 171.29188 | 35572 ft | 496 kts | 228° |
| 2026-05-06 22:10 | 54.56365 | 171.20063 | 35568 ft | 496 kts | 228° |
| 2026-05-06 22:11 | 54.51930 | 171.10944 | 35574 ft | 496 kts | 228° |
| 2026-05-06 22:11 | 54.47481 | 171.01829 | 35565 ft | 496 kts | 227° |
| 2026-05-06 22:12 | 54.43076 | 170.92841 | 35568 ft | 494 kts | 227° |
| 2026-05-06 22:12 | 54.38640 | 170.83818 | 35564 ft | 494 kts | 227° |
| 2026-05-06 22:13 | 54.34195 | 170.74813 | 35585 ft | 494 kts | 227° |
| 2026-05-06 22:13 | 54.29744 | 170.65828 | 35562 ft | 494 kts | 227° |
| 2026-05-06 22:14 | 54.25328 | 170.56946 | 35564 ft | 491 kts | 227° |
| 2026-05-06 22:14 | 54.20887 | 170.48077 | 35556 ft | 492 kts | 228° |
| 2026-05-06 22:15 | 54.16452 | 170.39175 | 35553 ft | 492 kts | 227° |
| 2026-05-06 22:15 | 54.12000 | 170.30310 | 35548 ft | 491 kts | 227° |
| 2026-05-06 22:16 | 54.07535 | 170.21513 | 35560 ft | 490 kts | 227° |
| 2026-05-06 22:16 | 54.03092 | 170.12699 | 35551 ft | 490 kts | 227° |
| 2026-05-06 22:17 | 53.98632 | 170.03926 | 35565 ft | 490 kts | 227° |
| 2026-05-06 22:17 | 53.94182 | 169.95174 | 35536 ft | 489 kts | 228° |
| 2026-05-06 22:18 | 53.89764 | 169.86497 | 35544 ft | 488 kts | 227° |
| 2026-05-06 22:18 | 53.85296 | 169.77834 | 35547 ft | 488 kts | 228° |
| 2026-05-06 22:19 | 53.80818 | 169.69165 | 35543 ft | 488 kts | 227° |
| 2026-05-06 22:19 | 53.76353 | 169.60522 | 35537 ft | 487 kts | 227° |
| 2026-05-06 22:20 | 53.71872 | 169.51936 | 35535 ft | 486 kts | 227° |
| 2026-05-06 22:20 | 53.67420 | 169.43330 | 35531 ft | 486 kts | 227° |
| 2026-05-06 22:21 | 53.63134 | 169.34536 | 35549 ft | 487 kts | 234° |
| 2026-05-06 22:21 | 53.59659 | 169.24735 | 35561 ft | 489 kts | 241° |
| 2026-05-06 22:22 | 53.56444 | 169.14723 | 35523 ft | 488 kts | 240° |
| 2026-05-06 22:22 | 53.53226 | 169.04662 | 35517 ft | 487 kts | 240° |
| 2026-05-06 22:23 | 53.50001 | 168.94638 | 35523 ft | 487 kts | 240° |
| 2026-05-06 22:23 | 53.46734 | 168.84674 | 35521 ft | 487 kts | 241° |
| 2026-05-06 22:24 | 53.43489 | 168.74656 | 35530 ft | 488 kts | 241° |
| 2026-05-06 22:24 | 53.40244 | 168.64656 | 35520 ft | 488 kts | 240° |
| 2026-05-06 22:25 | 53.36989 | 168.54696 | 35528 ft | 487 kts | 238° |
| 2026-05-06 22:25 | 53.33729 | 168.44810 | 35526 ft | 488 kts | 239° |
| 2026-05-06 22:26 | 53.30428 | 168.34867 | 35525 ft | 489 kts | 240° |
| 2026-05-06 22:26 | 53.27129 | 168.24943 | 35535 ft | 488 kts | 239° |
| 2026-05-06 22:27 | 53.23811 | 168.15031 | 35526 ft | 489 kts | 240° |
| 2026-05-06 22:27 | 53.20486 | 168.05122 | 35522 ft | 489 kts | 240° |
| 2026-05-06 22:28 | 53.17154 | 167.95241 | 35525 ft | 489 kts | 240° |
| 2026-05-06 22:28 | 53.13814 | 167.85370 | 35527 ft | 489 kts | 240° |
| 2026-05-06 22:29 | 53.10470 | 167.75528 | 35529 ft | 488 kts | 240° |
| 2026-05-06 22:29 | 53.07116 | 167.65697 | 35529 ft | 489 kts | 240° |
| 2026-05-06 22:30 | 53.03757 | 167.55889 | 35529 ft | 488 kts | 239° |
| 2026-05-06 22:30 | 53.00388 | 167.46088 | 35526 ft | 488 kts | 239° |
| 2026-05-06 22:31 | 52.97034 | 167.36372 | 35527 ft | 488 kts | 239° |
| 2026-05-06 22:31 | 52.93644 | 167.26590 | 35530 ft | 488 kts | 239° |
| 2026-05-06 22:32 | 52.90259 | 167.16861 | 35534 ft | 487 kts | 239° |
| 2026-05-06 22:32 | 52.86871 | 167.07162 | 35531 ft | 487 kts | 239° |
| 2026-05-06 22:33 | 52.83472 | 166.97467 | 35538 ft | 486 kts | 239° |
| 2026-05-06 22:33 | 52.80088 | 166.87853 | 35534 ft | 486 kts | 239° |
| 2026-05-06 22:34 | 52.76683 | 166.78215 | 35538 ft | 486 kts | 239° |
| 2026-05-06 22:34 | 52.73269 | 166.68590 | 35540 ft | 485 kts | 239° |
| 2026-05-06 22:35 | 52.69854 | 166.59002 | 35540 ft | 484 kts | 239° |
| 2026-05-06 22:35 | 52.66430 | 166.49421 | 35538 ft | 485 kts | 239° |
| 2026-05-06 22:36 | 52.63021 | 166.39925 | 35543 ft | 484 kts | 239° |
| 2026-05-06 22:36 | 52.59587 | 166.30384 | 35540 ft | 484 kts | 239° |
| 2026-05-06 22:37 | 52.56145 | 166.20868 | 35546 ft | 484 kts | 239° |
| 2026-05-06 22:37 | 52.52694 | 166.11359 | 35547 ft | 484 kts | 239° |
| 2026-05-06 22:38 | 52.49239 | 166.01871 | 35550 ft | 484 kts | 239° |
| 2026-05-06 22:38 | 52.45780 | 165.92411 | 35552 ft | 483 kts | 239° |
| 2026-05-06 22:39 | 52.42312 | 165.82967 | 35550 ft | 483 kts | 239° |
| 2026-05-06 22:39 | 52.38842 | 165.73543 | 35556 ft | 483 kts | 238° |
| 2026-05-06 22:40 | 52.35383 | 165.64192 | 35555 ft | 483 kts | 238° |
| 2026-05-06 22:40 | 52.31898 | 165.54800 | 35560 ft | 482 kts | 238° |
| 2026-05-06 22:41 | 52.26664 | 165.40765 | 35557 ft | 482 kts | 238° |
| 2026-05-06 22:42 | 52.23169 | 165.31432 | 35563 ft | 482 kts | 238° |
| 2026-05-06 22:42 | 52.19667 | 165.22120 | 35563 ft | 481 kts | 238° |
| 2026-05-06 22:43 | 52.16185 | 165.12891 | 35566 ft | 481 kts | 238° |
| 2026-05-06 22:43 | 52.12644 | 165.03580 | 35596 ft | 480 kts | 241° |
| 2026-05-06 22:44 | 52.09151 | 164.94390 | 35576 ft | 479 kts | 240° |
| 2026-05-06 22:44 | 52.05658 | 164.85185 | 35572 ft | 478 kts | 240° |
| 2026-05-06 22:45 | 52.02138 | 164.75999 | 35578 ft | 478 kts | 240° |
| 2026-05-06 22:45 | 51.98616 | 164.66837 | 35577 ft | 478 kts | 240° |
| 2026-05-06 22:46 | 51.95114 | 164.57752 | 35577 ft | 478 kts | 240° |
| 2026-05-06 22:46 | 51.91589 | 164.48646 | 35580 ft | 476 kts | 240° |
| 2026-05-06 22:47 | 51.88057 | 164.39551 | 35587 ft | 477 kts | 240° |
| 2026-05-06 22:47 | 51.84516 | 164.30466 | 35588 ft | 477 kts | 240° |
| 2026-05-06 22:48 | 51.80973 | 164.21410 | 35592 ft | 476 kts | 240° |
| 2026-05-06 22:48 | 51.77426 | 164.12370 | 35597 ft | 475 kts | 240° |
| 2026-05-06 22:49 | 51.73872 | 164.03349 | 35597 ft | 476 kts | 240° |
| 2026-05-06 22:49 | 51.70340 | 163.94411 | 35604 ft | 476 kts | 240° |
| 2026-05-06 22:50 | 51.66771 | 163.85418 | 35609 ft | 476 kts | 240° |
| 2026-05-06 22:50 | 51.63205 | 163.76458 | 35610 ft | 475 kts | 240° |
| 2026-05-06 22:51 | 51.59637 | 163.67525 | 35615 ft | 475 kts | 240° |
| 2026-05-06 22:51 | 51.56054 | 163.58583 | 35619 ft | 475 kts | 240° |
| 2026-05-06 22:52 | 51.52468 | 163.49667 | 35619 ft | 475 kts | 240° |
| 2026-05-06 22:52 | 51.48882 | 163.40780 | 35621 ft | 474 kts | 240° |
| 2026-05-06 22:53 | 51.45290 | 163.31910 | 35630 ft | 474 kts | 240° |
| 2026-05-06 22:53 | 51.42297 | 163.24541 | 35628 ft | 474 kts | 240° |
| 2026-05-06 22:54 | 51.38692 | 163.15695 | 35633 ft | 473 kts | 240° |
| 2026-05-06 22:54 | 51.35090 | 163.06884 | 35633 ft | 472 kts | 240° |
| 2026-05-06 22:55 | 51.31519 | 162.98180 | 35638 ft | 471 kts | 240° |
| 2026-05-06 22:55 | 51.27915 | 162.89425 | 35644 ft | 471 kts | 240° |
| 2026-05-06 22:56 | 51.24307 | 162.80690 | 35644 ft | 471 kts | 240° |
| 2026-05-06 22:56 | 51.20702 | 162.71989 | 35654 ft | 469 kts | 240° |
| 2026-05-06 22:57 | 51.17098 | 162.63324 | 35654 ft | 468 kts | 240° |
| 2026-05-06 22:57 | 51.13490 | 162.54676 | 35660 ft | 468 kts | 240° |
| 2026-05-06 22:58 | 51.09876 | 162.46041 | 35662 ft | 468 kts | 240° |
| 2026-05-06 22:58 | 51.06260 | 162.37434 | 35660 ft | 467 kts | 240° |
| 2026-05-06 22:59 | 51.02674 | 162.28920 | 35668 ft | 466 kts | 240° |
| 2026-05-06 22:59 | 50.99058 | 162.20368 | 35677 ft | 466 kts | 240° |
| 2026-05-06 23:00 | 50.95440 | 162.11838 | 35678 ft | 466 kts | 240° |
| 2026-05-06 23:00 | 50.91818 | 162.03328 | 35685 ft | 465 kts | 240° |
| 2026-05-06 23:01 | 50.88203 | 161.94859 | 35687 ft | 463 kts | 240° |
| 2026-05-06 23:01 | 50.84586 | 161.86416 | 35695 ft | 463 kts | 240° |
| 2026-05-06 23:02 | 50.80967 | 161.77991 | 35696 ft | 462 kts | 240° |
| 2026-05-06 23:02 | 50.77352 | 161.69606 | 35700 ft | 461 kts | 240° |
| 2026-05-06 23:03 | 50.73764 | 161.61308 | 35706 ft | 459 kts | 240° |
| 2026-05-06 23:03 | 50.70160 | 161.53002 | 35714 ft | 458 kts | 240° |
| 2026-05-06 23:04 | 50.66558 | 161.44725 | 35720 ft | 457 kts | 240° |
| 2026-05-06 23:04 | 50.62953 | 161.36469 | 35724 ft | 456 kts | 240° |
| 2026-05-06 23:05 | 50.59358 | 161.28258 | 35724 ft | 454 kts | 240° |
| 2026-05-06 23:05 | 50.55768 | 161.20089 | 35731 ft | 454 kts | 240° |
| 2026-05-06 23:06 | 50.52195 | 161.11980 | 35739 ft | 454 kts | 240° |
| 2026-05-06 23:06 | 50.48586 | 161.03818 | 35726 ft | 454 kts | 240° |
| 2026-05-06 23:07 | 50.44981 | 160.95689 | 35727 ft | 453 kts | 240° |
| 2026-05-06 23:07 | 50.41366 | 160.87559 | 35734 ft | 454 kts | 240° |
| 2026-05-06 23:08 | 50.37739 | 160.79433 | 35742 ft | 455 kts | 240° |
| 2026-05-06 23:08 | 50.34102 | 160.71307 | 35738 ft | 455 kts | 240° |
| 2026-05-06 23:09 | 50.30467 | 160.63209 | 35751 ft | 454 kts | 240° |
| 2026-05-06 23:09 | 50.26834 | 160.55141 | 35761 ft | 453 kts | 240° |
| 2026-05-06 23:10 | 50.23201 | 160.47100 | 35763 ft | 452 kts | 240° |
| 2026-05-06 23:10 | 50.19602 | 160.39138 | 35763 ft | 452 kts | 240° |
| 2026-05-06 23:11 | 50.15952 | 160.31164 | 35770 ft | 451 kts | 240° |
| 2026-05-06 23:11 | 50.12308 | 160.23209 | 35778 ft | 450 kts | 240° |
| 2026-05-06 23:12 | 50.08676 | 160.15302 | 35779 ft | 447 kts | 240° |
| 2026-05-06 23:12 | 50.05059 | 160.07455 | 35786 ft | 445 kts | 240° |
| 2026-05-06 23:13 | 50.01455 | 159.99656 | 35788 ft | 443 kts | 240° |
| 2026-05-06 23:13 | 49.97851 | 159.91882 | 35794 ft | 442 kts | 240° |
| 2026-05-06 23:14 | 49.94283 | 159.84208 | 35795 ft | 440 kts | 240° |
| 2026-05-06 23:14 | 49.90697 | 159.76516 | 35803 ft | 438 kts | 240° |
| 2026-05-06 23:15 | 49.87122 | 159.68872 | 35809 ft | 438 kts | 240° |
| 2026-05-06 23:15 | 49.83540 | 159.61232 | 35812 ft | 437 kts | 240° |
| 2026-05-06 23:16 | 49.79965 | 159.53633 | 35816 ft | 436 kts | 240° |
| 2026-05-06 23:16 | 49.76399 | 159.46072 | 35818 ft | 434 kts | 240° |
| 2026-05-06 23:17 | 49.72851 | 159.38526 | 35819 ft | 432 kts | 242° |
| 2026-05-06 23:17 | 49.69236 | 159.31058 | 35830 ft | 435 kts | 239° |
| 2026-05-06 23:18 | 49.65618 | 159.23654 | 35831 ft | 434 kts | 240° |
| 2026-05-06 23:18 | 49.61976 | 159.16244 | 35828 ft | 432 kts | 240° |
| 2026-05-06 23:19 | 49.58347 | 159.08866 | 35842 ft | 432 kts | 240° |
| 2026-05-06 23:19 | 49.54705 | 159.01489 | 35842 ft | 432 kts | 240° |
| 2026-05-06 23:20 | 49.51065 | 158.94135 | 35842 ft | 432 kts | 240° |
| 2026-05-06 23:20 | 49.47424 | 158.86796 | 35844 ft | 431 kts | 240° |
| 2026-05-06 23:21 | 49.43805 | 158.79526 | 35851 ft | 431 kts | 240° |
| 2026-05-06 23:21 | 49.40157 | 158.72214 | 35856 ft | 431 kts | 240° |
| 2026-05-06 23:22 | 49.36505 | 158.64916 | 35859 ft | 431 kts | 240° |
| 2026-05-06 23:22 | 49.32854 | 158.57640 | 35856 ft | 430 kts | 240° |
| 2026-05-06 23:23 | 49.29206 | 158.50388 | 35861 ft | 430 kts | 240° |
| 2026-05-06 23:23 | 49.25540 | 158.43123 | 35871 ft | 431 kts | 240° |
| 2026-05-06 23:24 | 49.21869 | 158.35865 | 35882 ft | 431 kts | 240° |
| 2026-05-06 23:24 | 49.18201 | 158.28635 | 35877 ft | 430 kts | 240° |
| 2026-05-06 23:25 | 49.14530 | 158.21416 | 35878 ft | 430 kts | 240° |
| 2026-05-06 23:25 | 49.10853 | 158.14209 | 35884 ft | 430 kts | 240° |
| 2026-05-06 23:26 | 49.07170 | 158.07005 | 35884 ft | 430 kts | 240° |
| 2026-05-06 23:26 | 49.03511 | 157.99870 | 35884 ft | 430 kts | 240° |
| 2026-05-06 23:27 | 48.99825 | 157.92700 | 35889 ft | 429 kts | 240° |
| 2026-05-06 23:27 | 48.96111 | 157.85496 | 35893 ft | 430 kts | 240° |
| 2026-05-06 23:28 | 48.92414 | 157.78345 | 35892 ft | 430 kts | 240° |
| 2026-05-06 23:28 | 48.88743 | 157.71261 | 35895 ft | 429 kts | 240° |
| 2026-05-06 23:29 | 48.85041 | 157.64137 | 35898 ft | 429 kts | 240° |
| 2026-05-06 23:29 | 48.81331 | 157.57018 | 35904 ft | 430 kts | 240° |
| 2026-05-06 23:30 | 48.77620 | 157.49914 | 35904 ft | 430 kts | 240° |
| 2026-05-06 23:30 | 48.73907 | 157.42826 | 35906 ft | 429 kts | 240° |
| 2026-05-06 23:31 | 48.70194 | 157.35757 | 35908 ft | 429 kts | 240° |
| 2026-05-06 23:31 | 48.66479 | 157.28701 | 35910 ft | 429 kts | 240° |
| 2026-05-06 23:32 | 48.62755 | 157.21649 | 35905 ft | 429 kts | 240° |
| 2026-05-06 23:32 | 48.59029 | 157.14610 | 35909 ft | 428 kts | 240° |
| 2026-05-06 23:33 | 48.55311 | 157.07605 | 35912 ft | 428 kts | 240° |
| 2026-05-06 23:33 | 48.51608 | 157.00648 | 35913 ft | 428 kts | 240° |
| 2026-05-06 23:34 | 48.47875 | 156.93651 | 35917 ft | 427 kts | 240° |
| 2026-05-06 23:34 | 48.44148 | 156.86683 | 35920 ft | 427 kts | 240° |
| 2026-05-06 23:35 | 48.40418 | 156.79727 | 35921 ft | 426 kts | 240° |
| 2026-05-06 23:35 | 48.36684 | 156.72785 | 35914 ft | 427 kts | 240° |
| 2026-05-06 23:36 | 48.32947 | 156.65852 | 35914 ft | 426 kts | 240° |
| 2026-05-06 23:36 | 48.29236 | 156.58988 | 35923 ft | 425 kts | 240° |
| 2026-05-06 23:37 | 48.25502 | 156.52095 | 35929 ft | 425 kts | 240° |
| 2026-05-06 23:37 | 48.21760 | 156.45208 | 35928 ft | 426 kts | 240° |
| 2026-05-06 23:38 | 48.18012 | 156.38328 | 35932 ft | 425 kts | 240° |
| 2026-05-06 23:38 | 48.14270 | 156.31475 | 35931 ft | 424 kts | 240° |
| 2026-05-06 23:39 | 48.10534 | 156.24650 | 35925 ft | 424 kts | 239° |
| 2026-05-06 23:39 | 48.06788 | 156.17826 | 35935 ft | 424 kts | 239° |
| 2026-05-06 23:40 | 48.03063 | 156.11056 | 35927 ft | 424 kts | 239° |
| 2026-05-06 23:40 | 47.99312 | 156.04254 | 35923 ft | 423 kts | 239° |
| 2026-05-06 23:41 | 47.95565 | 155.97479 | 35935 ft | 423 kts | 239° |
| 2026-05-06 23:41 | 47.92450 | 155.91860 | 35932 ft | 423 kts | 239° |
| 2026-05-06 23:42 | 47.88700 | 155.85108 | 35937 ft | 423 kts | 239° |
| 2026-05-06 23:42 | 47.84945 | 155.78365 | 35936 ft | 423 kts | 239° |
| 2026-05-06 23:43 | 47.81184 | 155.71630 | 35933 ft | 423 kts | 239° |
| 2026-05-06 23:43 | 47.77424 | 155.64913 | 35935 ft | 422 kts | 239° |
| 2026-05-06 23:44 | 47.73661 | 155.58206 | 35942 ft | 423 kts | 239° |
| 2026-05-06 23:44 | 47.69890 | 155.51503 | 35938 ft | 423 kts | 238° |
| 2026-05-06 23:45 | 47.66107 | 155.44796 | 35942 ft | 423 kts | 238° |
| 2026-05-06 23:45 | 47.62354 | 155.38156 | 35941 ft | 422 kts | 238° |
| 2026-05-06 23:46 | 47.58572 | 155.31481 | 35944 ft | 423 kts | 238° |
| 2026-05-06 23:46 | 47.54783 | 155.24812 | 35944 ft | 423 kts | 238° |
| 2026-05-06 23:47 | 47.50990 | 155.18151 | 35940 ft | 423 kts | 238° |
| 2026-05-06 23:47 | 47.47198 | 155.11511 | 35941 ft | 422 kts | 238° |
| 2026-05-06 23:48 | 47.43402 | 155.04876 | 35945 ft | 423 kts | 238° |
| 2026-05-06 23:48 | 47.39597 | 154.98246 | 35946 ft | 423 kts | 238° |
| 2026-05-06 23:49 | 47.35788 | 154.91624 | 35946 ft | 423 kts | 238° |
| 2026-05-06 23:49 | 47.32004 | 154.85058 | 35946 ft | 422 kts | 238° |
| 2026-05-06 23:50 | 47.28197 | 154.78472 | 35948 ft | 422 kts | 237° |
| 2026-05-06 23:50 | 47.22474 | 154.68598 | 35947 ft | 423 kts | 237° |
| 2026-05-06 23:51 | 47.18652 | 154.62026 | 35940 ft | 422 kts | 237° |
| 2026-05-06 23:51 | 47.14840 | 154.55485 | 35954 ft | 421 kts | 237° |
| 2026-05-06 23:52 | 47.11017 | 154.48942 | 35952 ft | 422 kts | 237° |
| 2026-05-06 23:52 | 47.07189 | 154.42405 | 35944 ft | 422 kts | 237° |
| 2026-05-06 23:53 | 47.03381 | 154.35921 | 35939 ft | 422 kts | 237° |
| 2026-05-06 23:53 | 46.99548 | 154.29406 | 35941 ft | 422 kts | 237° |
| 2026-05-06 23:54 | 46.95711 | 154.22902 | 35946 ft | 423 kts | 237° |
| 2026-05-06 23:54 | 46.91862 | 154.16393 | 35944 ft | 423 kts | 237° |
| 2026-05-06 23:55 | 46.88013 | 154.09900 | 35945 ft | 422 kts | 237° |
| 2026-05-06 23:55 | 46.84158 | 154.03410 | 35944 ft | 422 kts | 237° |
| 2026-05-06 23:56 | 46.80302 | 153.96934 | 35944 ft | 423 kts | 236° |
| 2026-05-06 23:56 | 46.76430 | 153.90450 | 35945 ft | 424 kts | 236° |
| 2026-05-06 23:57 | 46.72556 | 153.83976 | 35943 ft | 423 kts | 236° |
| 2026-05-06 23:57 | 46.68684 | 153.77520 | 35949 ft | 424 kts | 236° |
| 2026-05-06 23:58 | 46.64819 | 153.71094 | 35946 ft | 425 kts | 236° |
| 2026-05-06 23:58 | 46.60912 | 153.64611 | 35941 ft | 425 kts | 236° |
| 2026-05-06 23:59 | 46.57008 | 153.58148 | 35939 ft | 425 kts | 236° |
| 2026-05-06 23:59 | 46.53126 | 153.51735 | 35940 ft | 425 kts | 236° |
| 2026-05-07 00:00 | 46.49208 | 153.45282 | 35941 ft | 426 kts | 236° |
| 2026-05-07 00:00 | 46.45278 | 153.38823 | 35939 ft | 427 kts | 236° |
| 2026-05-07 00:01 | 46.41347 | 153.32377 | 35938 ft | 426 kts | 236° |
| 2026-05-07 00:01 | 46.37403 | 153.25924 | 35931 ft | 427 kts | 236° |
| 2026-05-07 00:02 | 46.33453 | 153.19479 | 35938 ft | 428 kts | 236° |
| 2026-05-07 00:02 | 46.29495 | 153.13035 | 35938 ft | 428 kts | 236° |
| 2026-05-07 00:03 | 46.25561 | 153.06643 | 35933 ft | 427 kts | 236° |
| 2026-05-07 00:03 | 46.21614 | 153.00221 | 35937 ft | 429 kts | 235° |
| 2026-05-07 00:04 | 46.17606 | 152.93845 | 35937 ft | 429 kts | 235° |
| 2026-05-07 00:04 | 46.13596 | 152.87447 | 35927 ft | 429 kts | 235° |
| 2026-05-07 00:05 | 46.09596 | 152.81082 | 35929 ft | 428 kts | 235° |
| 2026-05-07 00:05 | 46.05612 | 152.74759 | 35934 ft | 430 kts | 235° |
| 2026-05-07 00:06 | 46.01582 | 152.68376 | 35930 ft | 431 kts | 235° |
| 2026-05-07 00:06 | 45.97548 | 152.62003 | 35925 ft | 430 kts | 235° |
| 2026-05-07 00:07 | 45.93518 | 152.55650 | 35923 ft | 430 kts | 235° |
| 2026-05-07 00:07 | 45.89480 | 152.49299 | 35927 ft | 431 kts | 235° |
| 2026-05-07 00:08 | 45.85430 | 152.42946 | 35934 ft | 432 kts | 235° |
| 2026-05-07 00:08 | 45.81371 | 152.36593 | 35930 ft | 431 kts | 234° |
| 2026-05-07 00:09 | 45.77318 | 152.30262 | 35926 ft | 431 kts | 234° |
| 2026-05-07 00:09 | 45.73256 | 152.23934 | 35928 ft | 432 kts | 234° |
| 2026-05-07 00:10 | 45.69180 | 152.17597 | 35929 ft | 433 kts | 234° |
| 2026-05-07 00:10 | 45.65102 | 152.11274 | 35925 ft | 432 kts | 234° |
| 2026-05-07 00:11 | 45.61023 | 152.04960 | 35925 ft | 432 kts | 234° |
| 2026-05-07 00:11 | 45.56931 | 151.98645 | 35922 ft | 433 kts | 234° |
| 2026-05-07 00:12 | 45.52827 | 151.92323 | 35927 ft | 434 kts | 234° |
| 2026-05-07 00:12 | 45.48725 | 151.86020 | 35922 ft | 433 kts | 234° |
| 2026-05-07 00:13 | 45.44649 | 151.79769 | 35922 ft | 433 kts | 234° |
| 2026-05-07 00:13 | 45.40537 | 151.73481 | 35927 ft | 434 kts | 234° |
| 2026-05-07 00:14 | 45.36417 | 151.67193 | 35925 ft | 434 kts | 234° |
| 2026-05-07 00:14 | 45.32298 | 151.60923 | 35928 ft | 433 kts | 234° |
| 2026-05-07 00:15 | 45.28179 | 151.54664 | 35924 ft | 434 kts | 234° |
| 2026-05-07 00:15 | 45.24051 | 151.48408 | 35927 ft | 434 kts | 234° |
| 2026-05-07 00:16 | 45.19917 | 151.42158 | 35936 ft | 434 kts | 234° |
| 2026-05-07 00:16 | 45.15782 | 151.35917 | 35919 ft | 434 kts | 234° |
| 2026-05-07 00:17 | 45.11650 | 151.29698 | 35927 ft | 434 kts | 234° |
| 2026-05-07 00:17 | 45.07507 | 151.23475 | 35923 ft | 435 kts | 234° |
| 2026-05-07 00:18 | 45.03348 | 151.17243 | 35921 ft | 435 kts | 234° |
| 2026-05-07 00:18 | 44.99199 | 151.11036 | 35926 ft | 440 kts | 234° |
| 2026-05-07 00:19 | 44.94976 | 151.04742 | 35929 ft | 441 kts | 233° |
| 2026-05-07 00:19 | 44.90758 | 150.98462 | 35921 ft | 439 kts | 233° |
| 2026-05-07 00:20 | 44.86550 | 150.92213 | 35924 ft | 439 kts | 233° |
| 2026-05-07 00:20 | 44.82327 | 150.85955 | 35930 ft | 441 kts | 233° |
| 2026-05-07 00:21 | 44.78122 | 150.79741 | 35925 ft | 441 kts | 233° |
| 2026-05-07 00:21 | 44.73883 | 150.73487 | 35930 ft | 442 kts | 233° |
| 2026-05-07 00:22 | 44.69633 | 150.67233 | 35925 ft | 442 kts | 233° |
| 2026-05-07 00:22 | 44.65376 | 150.60984 | 35926 ft | 442 kts | 233° |
| 2026-05-07 00:23 | 44.61129 | 150.54762 | 35924 ft | 441 kts | 233° |
| 2026-05-07 00:23 | 44.56869 | 150.48537 | 35923 ft | 442 kts | 233° |
| 2026-05-07 00:24 | 44.52634 | 150.42359 | 35927 ft | 442 kts | 233° |
| 2026-05-07 00:24 | 44.48339 | 150.36111 | 35924 ft | 442 kts | 233° |
| 2026-05-07 00:25 | 44.44096 | 150.29951 | 35923 ft | 442 kts | 233° |
| 2026-05-07 00:25 | 44.40519 | 150.24770 | 35925 ft | 442 kts | 233° |
| 2026-05-07 00:26 | 44.35549 | 150.17585 | 35930 ft | 442 kts | 233° |
| 2026-05-07 00:26 | 44.31269 | 150.11412 | 35922 ft | 442 kts | 233° |
| 2026-05-07 00:27 | 44.26986 | 150.05251 | 35930 ft | 442 kts | 233° |
| 2026-05-07 00:27 | 44.22704 | 149.99104 | 35929 ft | 442 kts | 233° |
| 2026-05-07 00:28 | 44.19131 | 149.93985 | 35926 ft | 442 kts | 233° |
| 2026-05-07 00:28 | 44.14835 | 149.87843 | 35927 ft | 442 kts | 233° |
| 2026-05-07 00:29 | 44.10546 | 149.81723 | 35929 ft | 442 kts | 233° |
| 2026-05-07 00:30 | 44.01936 | 149.69481 | 35933 ft | 442 kts | 233° |
| 2026-05-07 00:30 | 43.97659 | 149.63420 | 35934 ft | 442 kts | 233° |
| 2026-05-07 00:31 | 43.93354 | 149.57333 | 35932 ft | 442 kts | 233° |
| 2026-05-07 00:31 | 43.89041 | 149.51246 | 35939 ft | 442 kts | 232° |
| 2026-05-07 00:32 | 43.84719 | 149.45164 | 35935 ft | 443 kts | 232° |
| 2026-05-07 00:32 | 43.80398 | 149.39092 | 35934 ft | 442 kts | 232° |
| 2026-05-07 00:33 | 43.76078 | 149.33037 | 35933 ft | 442 kts | 232° |
| 2026-05-07 00:33 | 43.71747 | 149.26979 | 35934 ft | 443 kts | 232° |
| 2026-05-07 00:34 | 43.67414 | 149.20932 | 35944 ft | 443 kts | 232° |
| 2026-05-07 00:34 | 43.63102 | 149.14928 | 35945 ft | 442 kts | 232° |
| 2026-05-07 00:35 | 43.58768 | 149.08905 | 35941 ft | 442 kts | 232° |
| 2026-05-07 00:35 | 43.54420 | 149.02877 | 35946 ft | 443 kts | 232° |
| 2026-05-07 00:36 | 43.50058 | 148.96843 | 35945 ft | 443 kts | 232° |
| 2026-05-07 00:36 | 43.45706 | 148.90835 | 35947 ft | 443 kts | 232° |
| 2026-05-07 00:37 | 43.41383 | 148.84878 | 35950 ft | 443 kts | 232° |
| 2026-05-07 00:37 | 43.37023 | 148.78886 | 35952 ft | 443 kts | 232° |
| 2026-05-07 00:38 | 43.32661 | 148.72902 | 35949 ft | 443 kts | 232° |
| 2026-05-07 00:38 | 43.28294 | 148.66925 | 35945 ft | 443 kts | 232° |
| 2026-05-07 00:39 | 43.23925 | 148.60959 | 35947 ft | 443 kts | 232° |
| 2026-05-07 00:39 | 43.19548 | 148.54993 | 35952 ft | 444 kts | 232° |
| 2026-05-07 00:40 | 43.15163 | 148.49030 | 35952 ft | 444 kts | 232° |
| 2026-05-07 00:40 | 43.10780 | 148.43082 | 35951 ft | 443 kts | 232° |
| 2026-05-07 00:41 | 43.06397 | 148.37147 | 35952 ft | 443 kts | 232° |
| 2026-05-07 00:41 | 43.02006 | 148.31214 | 35954 ft | 444 kts | 231° |
| 2026-05-07 00:42 | 42.97635 | 148.25320 | 35959 ft | 444 kts | 231° |
| 2026-05-07 00:42 | 42.93238 | 148.19404 | 35954 ft | 443 kts | 231° |
| 2026-05-07 00:43 | 42.88838 | 148.13495 | 35958 ft | 444 kts | 231° |
| 2026-05-07 00:43 | 42.84427 | 148.07586 | 35961 ft | 444 kts | 231° |
| 2026-05-07 00:44 | 42.80016 | 148.01689 | 35955 ft | 444 kts | 231° |
| 2026-05-07 00:44 | 42.75609 | 147.95809 | 35956 ft | 444 kts | 231° |
| 2026-05-07 00:45 | 42.71193 | 147.89929 | 35964 ft | 444 kts | 231° |
| 2026-05-07 00:45 | 42.66769 | 147.84053 | 35963 ft | 445 kts | 231° |
| 2026-05-07 00:46 | 42.62341 | 147.78180 | 35964 ft | 445 kts | 231° |
| 2026-05-07 00:46 | 42.57910 | 147.72319 | 35965 ft | 444 kts | 231° |
| 2026-05-07 00:47 | 42.53474 | 147.66463 | 35974 ft | 445 kts | 231° |
| 2026-05-07 00:47 | 42.49027 | 147.60604 | 35963 ft | 446 kts | 231° |
| 2026-05-07 00:48 | 42.44577 | 147.54753 | 35972 ft | 446 kts | 231° |
| 2026-05-07 00:48 | 42.40123 | 147.48918 | 35971 ft | 445 kts | 231° |
| 2026-05-07 00:49 | 42.35681 | 147.43084 | 35973 ft | 446 kts | 231° |
| 2026-05-07 00:49 | 42.31253 | 147.37288 | 35979 ft | 446 kts | 231° |
| 2026-05-07 00:50 | 42.26793 | 147.31462 | 35977 ft | 445 kts | 231° |
| 2026-05-07 00:50 | 42.22330 | 147.25645 | 35981 ft | 445 kts | 231° |
| 2026-05-07 00:51 | 42.17875 | 147.19848 | 35985 ft | 445 kts | 231° |
| 2026-05-07 00:51 | 42.13412 | 147.14055 | 35991 ft | 445 kts | 231° |
| 2026-05-07 00:52 | 42.08951 | 147.08274 | 35990 ft | 445 kts | 231° |
| 2026-05-07 00:52 | 42.04490 | 147.02508 | 35992 ft | 445 kts | 231° |
| 2026-05-07 00:53 | 42.00055 | 146.96784 | 35987 ft | 444 kts | 231° |
| 2026-05-07 00:53 | 41.95592 | 146.91038 | 35992 ft | 444 kts | 231° |
| 2026-05-07 00:54 | 41.91119 | 146.85292 | 36001 ft | 445 kts | 231° |
| 2026-05-07 00:54 | 41.86653 | 146.79548 | 35997 ft | 444 kts | 230° |
| 2026-05-07 00:55 | 41.82185 | 146.73816 | 35998 ft | 444 kts | 230° |
| 2026-05-07 00:55 | 41.77716 | 146.68098 | 35999 ft | 444 kts | 230° |
| 2026-05-07 00:56 | 41.73275 | 146.62423 | 36002 ft | 444 kts | 230° |
| 2026-05-07 00:56 | 41.68791 | 146.56709 | 36001 ft | 445 kts | 230° |
| 2026-05-07 00:57 | 41.64314 | 146.51011 | 36000 ft | 444 kts | 230° |
| 2026-05-07 00:57 | 41.59837 | 146.45328 | 36002 ft | 444 kts | 230° |
| 2026-05-07 00:58 | 41.55351 | 146.39641 | 36008 ft | 445 kts | 230° |
| 2026-05-07 00:58 | 41.50847 | 146.33947 | 36008 ft | 445 kts | 230° |
| 2026-05-07 00:59 | 41.44100 | 146.25437 | 36010 ft | 445 kts | 230° |
| 2026-05-07 01:00 | 41.39596 | 146.19776 | 36011 ft | 446 kts | 230° |
| 2026-05-07 01:00 | 41.35123 | 146.14136 | 36010 ft | 446 kts | 230° |
| 2026-05-07 01:01 | 41.30601 | 146.08488 | 36011 ft | 445 kts | 230° |
| 2026-05-07 01:01 | 41.26097 | 146.02850 | 36012 ft | 445 kts | 230° |
| 2026-05-07 01:02 | 41.21584 | 145.97217 | 36014 ft | 445 kts | 230° |
| 2026-05-07 01:02 | 41.17063 | 145.91584 | 36015 ft | 445 kts | 230° |
| 2026-05-07 01:03 | 41.12548 | 145.85970 | 36016 ft | 444 kts | 230° |
| 2026-05-07 01:03 | 41.08035 | 145.80370 | 36015 ft | 444 kts | 230° |
| 2026-05-07 01:04 | 41.03521 | 145.74780 | 36016 ft | 444 kts | 230° |
| 2026-05-07 01:04 | 40.99026 | 145.69223 | 36020 ft | 444 kts | 230° |
| 2026-05-07 01:05 | 40.94513 | 145.63658 | 36014 ft | 443 kts | 230° |
| 2026-05-07 01:05 | 40.90005 | 145.58106 | 36018 ft | 443 kts | 230° |
| 2026-05-07 01:06 | 40.85484 | 145.52551 | 36017 ft | 444 kts | 229° |
| 2026-05-07 01:06 | 40.80947 | 145.46987 | 36016 ft | 445 kts | 229° |
| 2026-05-07 01:07 | 40.76414 | 145.41440 | 36012 ft | 444 kts | 229° |
| 2026-05-07 01:07 | 40.71884 | 145.35905 | 36019 ft | 444 kts | 229° |
| 2026-05-07 01:08 | 40.67347 | 145.30374 | 36017 ft | 445 kts | 229° |
| 2026-05-07 01:08 | 40.62840 | 145.24893 | 35995 ft | 436 kts | 229° |
| 2026-05-07 01:08 | 40.60620 | 145.22199 | 35984 ft | 422 kts | 229° |
| 2026-05-07 01:09 | 40.58519 | 145.19642 | 35991 ft | 413 kts | 230° |
| 2026-05-07 01:09 | 40.54316 | 145.14541 | 36026 ft | 412 kts | 229° |
| 2026-05-07 01:10 | 40.50077 | 145.09415 | 36039 ft | 416 kts | 229° |
| 2026-05-07 01:10 | 40.45804 | 145.04255 | 36031 ft | 417 kts | 229° |
| 2026-05-07 01:11 | 40.41544 | 144.99117 | 36022 ft | 415 kts | 229° |
| 2026-05-07 01:11 | 40.37293 | 144.93999 | 36025 ft | 415 kts | 229° |
| 2026-05-07 01:12 | 40.33026 | 144.88870 | 36025 ft | 417 kts | 229° |
| 2026-05-07 01:12 | 40.28744 | 144.83736 | 36024 ft | 417 kts | 229° |
| 2026-05-07 01:13 | 40.24497 | 144.78648 | 36022 ft | 416 kts | 229° |
| 2026-05-07 01:13 | 40.20211 | 144.73525 | 36024 ft | 416 kts | 229° |
| 2026-05-07 01:14 | 40.15925 | 144.68411 | 36024 ft | 417 kts | 229° |
| 2026-05-07 01:14 | 40.11631 | 144.63297 | 36024 ft | 417 kts | 229° |
| 2026-05-07 01:15 | 40.07365 | 144.58224 | 36024 ft | 417 kts | 229° |
| 2026-05-07 01:15 | 40.03076 | 144.53134 | 36025 ft | 417 kts | 229° |
| 2026-05-07 01:16 | 39.98771 | 144.48035 | 36029 ft | 418 kts | 229° |
| 2026-05-07 01:16 | 39.95189 | 144.43798 | 36031 ft | 418 kts | 229° |
| 2026-05-07 01:17 | 39.90873 | 144.38701 | 36028 ft | 418 kts | 228° |
| 2026-05-07 01:17 | 39.85867 | 144.32799 | 36027 ft | 418 kts | 228° |
| 2026-05-07 01:18 | 39.82364 | 144.28678 | 36026 ft | 419 kts | 228° |
| 2026-05-07 01:18 | 39.78038 | 144.23597 | 36025 ft | 419 kts | 228° |
| 2026-05-07 01:19 | 39.73705 | 144.18517 | 36022 ft | 419 kts | 228° |
| 2026-05-07 01:19 | 39.69398 | 144.13475 | 36023 ft | 419 kts | 228° |
| 2026-05-07 01:20 | 39.65054 | 144.08400 | 36022 ft | 421 kts | 228° |
| 2026-05-07 01:20 | 39.60683 | 144.03301 | 36026 ft | 422 kts | 228° |
| 2026-05-07 01:21 | 39.56306 | 143.98206 | 36024 ft | 422 kts | 228° |
| 2026-05-07 01:21 | 39.51940 | 143.93130 | 36024 ft | 422 kts | 227° |
| 2026-05-07 01:22 | 39.47561 | 143.88050 | 36031 ft | 423 kts | 227° |
| 2026-05-07 01:22 | 39.43193 | 143.82990 | 36030 ft | 424 kts | 227° |
| 2026-05-07 01:23 | 39.38795 | 143.77906 | 36026 ft | 424 kts | 227° |
| 2026-05-07 01:23 | 39.34397 | 143.72829 | 36028 ft | 424 kts | 227° |
| 2026-05-07 01:24 | 39.29989 | 143.67753 | 36027 ft | 425 kts | 227° |
| 2026-05-07 01:24 | 39.25566 | 143.62665 | 36025 ft | 426 kts | 227° |
| 2026-05-07 01:25 | 39.21148 | 143.57593 | 36024 ft | 425 kts | 227° |
| 2026-05-07 01:25 | 39.16721 | 143.52519 | 36022 ft | 426 kts | 227° |
| 2026-05-07 01:26 | 39.12277 | 143.47436 | 36023 ft | 428 kts | 227° |
| 2026-05-07 01:26 | 39.07823 | 143.42348 | 36021 ft | 428 kts | 227° |
| 2026-05-07 01:27 | 39.03398 | 143.37305 | 36028 ft | 427 kts | 227° |
| 2026-05-07 01:27 | 38.98942 | 143.32233 | 36027 ft | 428 kts | 227° |
| 2026-05-07 01:28 | 38.94478 | 143.27162 | 36029 ft | 428 kts | 226° |
| 2026-05-07 01:28 | 38.92122 | 143.24795 | 36021 ft | 436 kts | 214° |
| 2026-05-07 01:28 | 38.89293 | 143.23272 | 36097 ft | 445 kts | 204° |
| 2026-05-07 01:29 | 38.83268 | 143.21112 | 36052 ft | 457 kts | 196° |
| 2026-05-07 01:29 | 38.76982 | 143.19748 | 36034 ft | 456 kts | 197° |
| 2026-05-07 01:30 | 38.70752 | 143.18366 | 36028 ft | 454 kts | 197° |
| 2026-05-07 01:30 | 38.64523 | 143.16979 | 36028 ft | 455 kts | 197° |
| 2026-05-07 01:31 | 38.58312 | 143.15603 | 36031 ft | 456 kts | 196° |
| 2026-05-07 01:31 | 38.52053 | 143.14218 | 36031 ft | 456 kts | 196° |
| 2026-05-07 01:32 | 38.45815 | 143.12837 | 36032 ft | 455 kts | 196° |
| 2026-05-07 01:32 | 38.39579 | 143.11462 | 36036 ft | 455 kts | 196° |
| 2026-05-07 01:33 | 38.33331 | 143.10085 | 36040 ft | 456 kts | 196° |
| 2026-05-07 01:33 | 38.27081 | 143.08712 | 36035 ft | 456 kts | 196° |
| 2026-05-07 01:34 | 38.20840 | 143.07341 | 36031 ft | 455 kts | 196° |
| 2026-05-07 01:34 | 38.14605 | 143.05974 | 36034 ft | 454 kts | 196° |
| 2026-05-07 01:35 | 38.08367 | 143.04611 | 36036 ft | 455 kts | 196° |
| 2026-05-07 01:35 | 38.02161 | 143.03255 | 36036 ft | 455 kts | 195° |
| 2026-05-07 01:36 | 37.95924 | 143.01896 | 36035 ft | 454 kts | 195° |
| 2026-05-07 01:36 | 37.89694 | 143.00539 | 36040 ft | 454 kts | 195° |
| 2026-05-07 01:37 | 37.83457 | 142.99185 | 36039 ft | 455 kts | 195° |
| 2026-05-07 01:37 | 37.77206 | 142.97829 | 36039 ft | 455 kts | 195° |
| 2026-05-07 01:38 | 37.70972 | 142.96480 | 36021 ft | 454 kts | 195° |
| 2026-05-07 01:38 | 37.64720 | 142.95127 | 35743 ft | 455 kts | 195° |
| 2026-05-07 01:38 | 37.61620 | 142.94462 | 35525 ft | 447 kts | 195° |
| 2026-05-07 01:39 | 37.58579 | 142.93804 | 35313 ft | 442 kts | 195° |
| 2026-05-07 01:39 | 37.55554 | 142.93150 | 35119 ft | 440 kts | 195° |
| 2026-05-07 01:39 | 37.52534 | 142.92500 | 34934 ft | 441 kts | 195° |
| 2026-05-07 01:39 | 37.49543 | 142.91857 | 34758 ft | 442 kts | 195° |
| 2026-05-07 01:40 | 37.46512 | 142.91206 | 34572 ft | 442 kts | 195° |
| 2026-05-07 01:40 | 37.43473 | 142.90554 | 34385 ft | 442 kts | 195° |
| 2026-05-07 01:40 | 37.40448 | 142.89905 | 34198 ft | 440 kts | 195° |
| 2026-05-07 01:40 | 37.37430 | 142.89257 | 34032 ft | 439 kts | 195° |
| 2026-05-07 01:41 | 37.34418 | 142.88611 | 33842 ft | 438 kts | 195° |
| 2026-05-07 01:41 | 37.31419 | 142.87967 | 33623 ft | 437 kts | 195° |
| 2026-05-07 01:41 | 37.28432 | 142.87331 | 33398 ft | 435 kts | 195° |
| 2026-05-07 01:41 | 37.25452 | 142.86696 | 33143 ft | 434 kts | 195° |
| 2026-05-07 01:42 | 37.22480 | 142.86063 | 32879 ft | 432 kts | 194° |
| 2026-05-07 01:42 | 37.19520 | 142.85433 | 32611 ft | 429 kts | 194° |
| 2026-05-07 01:42 | 37.16587 | 142.84809 | 32354 ft | 426 kts | 194° |
| 2026-05-07 01:42 | 37.13716 | 142.84017 | 32079 ft | 419 kts | 204° |
| 2026-05-07 01:43 | 37.11008 | 142.82728 | 31868 ft | 414 kts | 207° |
| 2026-05-07 01:43 | 37.08356 | 142.81314 | 31621 ft | 414 kts | 208° |
| 2026-05-07 01:43 | 37.05779 | 142.79746 | 31377 ft | 410 kts | 214° |
| 2026-05-07 01:43 | 37.03317 | 142.77956 | 31138 ft | 408 kts | 214° |
| 2026-05-07 01:44 | 37.00845 | 142.76211 | 30891 ft | 407 kts | 213° |
| 2026-05-07 01:44 | 36.98413 | 142.74503 | 30651 ft | 405 kts | 213° |
| 2026-05-07 01:44 | 36.95963 | 142.72773 | 30416 ft | 404 kts | 213° |
| 2026-05-07 01:44 | 36.93504 | 142.71039 | 30090 ft | 404 kts | 213° |
| 2026-05-07 01:45 | 36.91062 | 142.69321 | 29716 ft | 401 kts | 213° |
| 2026-05-07 01:45 | 36.88638 | 142.67618 | 29347 ft | 398 kts | 213° |
| 2026-05-07 01:45 | 36.86232 | 142.65926 | 28983 ft | 394 kts | 213° |
| 2026-05-07 01:45 | 36.83852 | 142.64256 | 28715 ft | 390 kts | 213° |
| 2026-05-07 01:46 | 36.81490 | 142.62598 | 28459 ft | 390 kts | 213° |
| 2026-05-07 01:46 | 36.79126 | 142.60939 | 28207 ft | 390 kts | 213° |
| 2026-05-07 01:46 | 36.76762 | 142.59285 | 28075 ft | 387 kts | 213° |
| 2026-05-07 01:46 | 36.75690 | 142.58534 | 27999 ft | 387 kts | 213° |
| 2026-05-07 01:47 | 36.73571 | 142.57050 | 27794 ft | 389 kts | 213° |
| 2026-05-07 01:47 | 36.71253 | 142.55428 | 27573 ft | 389 kts | 213° |
| 2026-05-07 01:47 | 36.68891 | 142.53778 | 27241 ft | 389 kts | 213° |
| 2026-05-07 01:47 | 36.66542 | 142.52139 | 26935 ft | 384 kts | 213° |
| 2026-05-07 01:48 | 36.64223 | 142.50520 | 26680 ft | 380 kts | 213° |
| 2026-05-07 01:48 | 36.61932 | 142.48921 | 26433 ft | 378 kts | 213° |
| 2026-05-07 01:48 | 36.59642 | 142.47324 | 26215 ft | 377 kts | 213° |
| 2026-05-07 01:48 | 36.57358 | 142.45734 | 26064 ft | 375 kts | 213° |
| 2026-05-07 01:49 | 36.55085 | 142.44151 | 25946 ft | 375 kts | 213° |
| 2026-05-07 01:49 | 36.52810 | 142.42569 | 25808 ft | 375 kts | 213° |
| 2026-05-07 01:49 | 36.50527 | 142.40982 | 25674 ft | 375 kts | 213° |
| 2026-05-07 01:49 | 36.48279 | 142.39421 | 25551 ft | 374 kts | 213° |
| 2026-05-07 01:50 | 36.45986 | 142.37830 | 25411 ft | 372 kts | 213° |
| 2026-05-07 01:50 | 36.43730 | 142.36265 | 25278 ft | 370 kts | 212° |
| 2026-05-07 01:50 | 36.41482 | 142.34706 | 25166 ft | 370 kts | 212° |
| 2026-05-07 01:50 | 36.39267 | 142.33171 | 25055 ft | 370 kts | 212° |
| 2026-05-07 01:51 | 36.37020 | 142.31616 | 24928 ft | 369 kts | 212° |
| 2026-05-07 01:51 | 36.34777 | 142.30064 | 24790 ft | 368 kts | 212° |
| 2026-05-07 01:51 | 36.32546 | 142.28522 | 24663 ft | 366 kts | 212° |
| 2026-05-07 01:51 | 36.30325 | 142.26986 | 24534 ft | 365 kts | 212° |
| 2026-05-07 01:52 | 36.28113 | 142.25459 | 24407 ft | 364 kts | 212° |
| 2026-05-07 01:52 | 36.25901 | 142.23934 | 24281 ft | 363 kts | 212° |
| 2026-05-07 01:52 | 36.23696 | 142.22415 | 24160 ft | 362 kts | 212° |
| 2026-05-07 01:52 | 36.21496 | 142.20899 | 24035 ft | 361 kts | 212° |
| 2026-05-07 01:53 | 36.19303 | 142.19390 | 23915 ft | 360 kts | 212° |
| 2026-05-07 01:53 | 36.17120 | 142.17888 | 23786 ft | 358 kts | 212° |
| 2026-05-07 01:53 | 36.14946 | 142.16395 | 23665 ft | 356 kts | 212° |
| 2026-05-07 01:53 | 36.12782 | 142.14908 | 23495 ft | 356 kts | 212° |
| 2026-05-07 01:54 | 36.10617 | 142.13421 | 23290 ft | 355 kts | 212° |
| 2026-05-07 01:54 | 36.08439 | 142.11952 | 22811 ft | 358 kts | 213° |
| 2026-05-07 01:54 | 36.06267 | 142.10440 | 22316 ft | 359 kts | 213° |
| 2026-05-07 01:54 | 36.04086 | 142.08919 | 21806 ft | 360 kts | 213° |
| 2026-05-07 01:55 | 36.01920 | 142.07423 | 21278 ft | 363 kts | 213° |
| 2026-05-07 01:55 | 35.99682 | 142.05876 | 20741 ft | 365 kts | 213° |
| 2026-05-07 01:55 | 35.97490 | 142.04362 | 20225 ft | 367 kts | 213° |
| 2026-05-07 01:55 | 35.95276 | 142.02835 | 19636 ft | 354 kts | 213° |
| 2026-05-07 01:56 | 35.93196 | 142.01404 | 19101 ft | 333 kts | 214° |
| 2026-05-07 01:56 | 35.91207 | 142.00025 | 18703 ft | 323 kts | 214° |
| 2026-05-07 01:56 | 35.89230 | 141.98653 | 18379 ft | 328 kts | 214° |
| 2026-05-07 01:56 | 35.87243 | 141.97290 | 17941 ft | 325 kts | 214° |
| 2026-05-07 01:57 | 35.85282 | 141.95943 | 17468 ft | 321 kts | 214° |
| 2026-05-07 01:57 | 35.83342 | 141.94607 | 17002 ft | 317 kts | 214° |
| 2026-05-07 01:57 | 35.81659 | 141.92959 | 16529 ft | 303 kts | 235° |
| 2026-05-07 01:57 | 35.80573 | 141.90797 | 16104 ft | 292 kts | 245° |
| 2026-05-07 01:58 | 35.79788 | 141.88576 | 15927 ft | 280 kts | 250° |
| 2026-05-07 01:58 | 35.79160 | 141.86310 | 15861 ft | 279 kts | 253° |
| 2026-05-07 01:58 | 35.78612 | 141.83999 | 15808 ft | 283 kts | 255° |
| 2026-05-07 01:58 | 35.78241 | 141.81618 | 15817 ft | 283 kts | 262° |
| 2026-05-07 01:59 | 35.78010 | 141.79205 | 15692 ft | 287 kts | 262° |
| 2026-05-07 01:59 | 35.77773 | 141.76737 | 15391 ft | 292 kts | 262° |
| 2026-05-07 01:59 | 35.77598 | 141.74266 | 14966 ft | 289 kts | 266° |
| 2026-05-07 01:59 | 35.77564 | 141.71801 | 14541 ft | 286 kts | 267° |
| 2026-05-07 02:00 | 35.77539 | 141.69359 | 14086 ft | 283 kts | 267° |
| 2026-05-07 02:00 | 35.77492 | 141.66992 | 13579 ft | 270 kts | 266° |
| 2026-05-07 02:00 | 35.77440 | 141.64777 | 13343 ft | 250 kts | 266° |
| 2026-05-07 02:00 | 35.77395 | 141.62682 | 13094 ft | 239 kts | 266° |
| 2026-05-07 02:01 | 35.77351 | 141.60634 | 13052 ft | 243 kts | 266° |
| 2026-05-07 02:01 | 35.77307 | 141.58552 | 13001 ft | 243 kts | 266° |
| 2026-05-07 02:01 | 35.77267 | 141.56488 | 12968 ft | 241 kts | 266° |
| 2026-05-07 02:01 | 35.77222 | 141.54422 | 12954 ft | 241 kts | 266° |
| 2026-05-07 02:02 | 35.77176 | 141.52355 | 12950 ft | 242 kts | 266° |
| 2026-05-07 02:02 | 35.77132 | 141.50284 | 12948 ft | 242 kts | 266° |
| 2026-05-07 02:02 | 35.77087 | 141.48215 | 12857 ft | 244 kts | 266° |
| 2026-05-07 02:02 | 35.77041 | 141.46137 | 12540 ft | 246 kts | 266° |
| 2026-05-07 02:03 | 35.76994 | 141.44020 | 12205 ft | 242 kts | 266° |
| 2026-05-07 02:03 | 35.76948 | 141.41987 | 11911 ft | 239 kts | 266° |
| 2026-05-07 02:03 | 35.76901 | 141.39945 | 11604 ft | 238 kts | 266° |
| 2026-05-07 02:03 | 35.76853 | 141.37911 | 11302 ft | 238 kts | 266° |
| 2026-05-07 02:04 | 35.76806 | 141.35871 | 11002 ft | 238 kts | 266° |
| 2026-05-07 02:04 | 35.76759 | 141.33831 | 10710 ft | 238 kts | 266° |
| 2026-05-07 02:04 | 35.76712 | 141.31811 | 10511 ft | 234 kts | 266° |
| 2026-05-07 02:04 | 35.76665 | 141.29820 | 10420 ft | 232 kts | 265° |
| 2026-05-07 02:05 | 35.76616 | 141.27822 | 10393 ft | 235 kts | 265° |
| 2026-05-07 02:05 | 35.76584 | 141.26487 | 10387 ft | 236 kts | 265° |
| 2026-05-07 02:05 | 35.76536 | 141.24467 | 10370 ft | 236 kts | 265° |
| 2026-05-07 02:05 | 35.76475 | 141.22451 | 10358 ft | 231 kts | 264° |
| 2026-05-07 02:06 | 35.76405 | 141.20541 | 10310 ft | 216 kts | 266° |
| 2026-05-07 02:06 | 35.76403 | 141.18700 | 10066 ft | 213 kts | 268° |
| 2026-05-07 02:06 | 35.76425 | 141.16882 | 9768 ft | 211 kts | 268° |
| 2026-05-07 02:06 | 35.76438 | 141.15078 | 9438 ft | 210 kts | 267° |
| 2026-05-07 02:07 | 35.76435 | 141.13281 | 9093 ft | 210 kts | 266° |
| 2026-05-07 02:07 | 35.76427 | 141.09743 | 8642 ft | 199 kts | 266° |
| 2026-05-07 02:07 | 35.76426 | 141.08072 | 8577 ft | 194 kts | 266° |
| 2026-05-07 02:08 | 35.76422 | 141.06401 | 8574 ft | 198 kts | 266° |
| 2026-05-07 02:08 | 35.76418 | 141.04696 | 8572 ft | 200 kts | 266° |
| 2026-05-07 02:08 | 35.76542 | 141.02989 | 8496 ft | 208 kts | 286° |
| 2026-05-07 02:08 | 35.77285 | 141.01415 | 8284 ft | 214 kts | 298° |
| 2026-05-07 02:09 | 35.78101 | 140.99880 | 8048 ft | 213 kts | 298° |
| 2026-05-07 02:09 | 35.78919 | 140.98366 | 7802 ft | 211 kts | 298° |
| 2026-05-07 02:09 | 35.79738 | 140.96860 | 7550 ft | 212 kts | 298° |
| 2026-05-07 02:09 | 35.80537 | 140.95345 | 7305 ft | 210 kts | 296° |
| 2026-05-07 02:10 | 35.81243 | 140.93782 | 7062 ft | 208 kts | 293° |
| 2026-05-07 02:10 | 35.81902 | 140.92226 | 6862 ft | 207 kts | 292° |
| 2026-05-07 02:10 | 35.82571 | 140.90658 | 6698 ft | 205 kts | 293° |
| 2026-05-07 02:10 | 35.83248 | 140.89119 | 6634 ft | 204 kts | 294° |
| 2026-05-07 02:11 | 35.83938 | 140.87581 | 6578 ft | 206 kts | 294° |
| 2026-05-07 02:11 | 35.84632 | 140.86026 | 6556 ft | 207 kts | 294° |
| 2026-05-07 02:11 | 35.85321 | 140.84468 | 6549 ft | 207 kts | 294° |
| 2026-05-07 02:11 | 35.86008 | 140.82909 | 6551 ft | 207 kts | 293° |
| 2026-05-07 02:12 | 35.86693 | 140.81354 | 6541 ft | 207 kts | 293° |
| 2026-05-07 02:12 | 35.87377 | 140.79794 | 6516 ft | 207 kts | 294° |
| 2026-05-07 02:12 | 35.88069 | 140.78234 | 6509 ft | 206 kts | 294° |
| 2026-05-07 02:12 | 35.88755 | 140.76682 | 6506 ft | 206 kts | 293° |
| 2026-05-07 02:13 | 35.89442 | 140.75124 | 6508 ft | 207 kts | 293° |
| 2026-05-07 02:13 | 35.90129 | 140.73562 | 6506 ft | 207 kts | 294° |
| 2026-05-07 02:13 | 35.90815 | 140.72010 | 6505 ft | 206 kts | 294° |
| 2026-05-07 02:13 | 35.91509 | 140.70490 | 6507 ft | 206 kts | 294° |
| 2026-05-07 02:14 | 35.92224 | 140.68950 | 6507 ft | 207 kts | 295° |
| 2026-05-07 02:14 | 35.92940 | 140.67415 | 6510 ft | 207 kts | 295° |
| 2026-05-07 02:14 | 35.93657 | 140.65876 | 6512 ft | 206 kts | 295° |
| 2026-05-07 02:14 | 35.94373 | 140.64346 | 6517 ft | 206 kts | 295° |
| 2026-05-07 02:15 | 35.95091 | 140.62809 | 6463 ft | 209 kts | 295° |
| 2026-05-07 02:15 | 35.95817 | 140.61251 | 6221 ft | 208 kts | 295° |
| 2026-05-07 02:15 | 35.96531 | 140.59732 | 6079 ft | 199 kts | 295° |
| 2026-05-07 02:15 | 35.97209 | 140.58292 | 6012 ft | 192 kts | 295° |
| 2026-05-07 02:16 | 35.97889 | 140.56847 | 6033 ft | 196 kts | 295° |
| 2026-05-07 02:16 | 35.98571 | 140.55364 | 6038 ft | 199 kts | 294° |
| 2026-05-07 02:16 | 35.99270 | 140.53880 | 6022 ft | 200 kts | 295° |
| 2026-05-07 02:16 | 35.99980 | 140.52408 | 6015 ft | 199 kts | 296° |
| 2026-05-07 02:17 | 36.00707 | 140.50939 | 6013 ft | 201 kts | 298° |
| 2026-05-07 02:17 | 36.01514 | 140.49527 | 6017 ft | 203 kts | 302° |
| 2026-05-07 02:17 | 36.02379 | 140.48149 | 6028 ft | 203 kts | 303° |
| 2026-05-07 02:17 | 36.03241 | 140.46777 | 6028 ft | 202 kts | 302° |
| 2026-05-07 02:18 | 36.04087 | 140.45384 | 6040 ft | 203 kts | 303° |
| 2026-05-07 02:18 | 36.04941 | 140.43994 | 6084 ft | 203 kts | 300° |
| 2026-05-07 02:18 | 36.05738 | 140.42565 | 6074 ft | 202 kts | 300° |
| 2026-05-07 02:18 | 36.06598 | 140.41185 | 6054 ft | 203 kts | 304° |
| 2026-05-07 02:19 | 36.07466 | 140.39805 | 6036 ft | 203 kts | 302° |
| 2026-05-07 02:19 | 36.08289 | 140.38424 | 6028 ft | 203 kts | 302° |
| 2026-05-07 02:19 | 36.09121 | 140.37022 | 6038 ft | 202 kts | 302° |
| 2026-05-07 02:19 | 36.09955 | 140.35620 | 6028 ft | 203 kts | 303° |
| 2026-05-07 02:20 | 36.10813 | 140.34229 | 6008 ft | 205 kts | 302° |
| 2026-05-07 02:20 | 36.11448 | 140.32666 | 5713 ft | 199 kts | 281° |
| 2026-05-07 02:20 | 36.11714 | 140.31010 | 5428 ft | 195 kts | 275° |
| 2026-05-07 02:20 | 36.11928 | 140.29367 | 5149 ft | 192 kts | 275° |
| 2026-05-07 02:21 | 36.11989 | 140.27734 | 4852 ft | 189 kts | 267° |
| 2026-05-07 02:21 | 36.11992 | 140.26115 | 4570 ft | 189 kts | 266° |
| 2026-05-07 02:21 | 36.11977 | 140.24489 | 4293 ft | 189 kts | 265° |
| 2026-05-07 02:21 | 36.11964 | 140.22880 | 4146 ft | 185 kts | 267° |
| 2026-05-07 02:22 | 36.11926 | 140.21278 | 4089 ft | 187 kts | 266° |
| 2026-05-07 02:22 | 36.11914 | 140.19661 | 4053 ft | 188 kts | 267° |
| 2026-05-07 02:22 | 36.11675 | 140.18088 | 3933 ft | 189 kts | 236° |
| 2026-05-07 02:22 | 36.10674 | 140.17088 | 3751 ft | 187 kts | 198° |
| 2026-05-07 02:23 | 36.09483 | 140.16655 | 4031 ft | 174 kts | 194° |
| 2026-05-07 02:23 | 36.08240 | 140.16332 | 4266 ft | 192 kts | 188° |
| 2026-05-07 02:23 | 36.06912 | 140.16481 | 4199 ft | 193 kts | 169° |
| 2026-05-07 02:23 | 36.05608 | 140.16931 | 4128 ft | 193 kts | 162° |
| 2026-05-07 02:24 | 36.04358 | 140.17508 | 4059 ft | 190 kts | 161° |
| 2026-05-07 02:24 | 36.03130 | 140.18161 | 4046 ft | 194 kts | 154° |
| 2026-05-07 02:24 | 36.01950 | 140.18985 | 4036 ft | 195 kts | 150° |
| 2026-05-07 02:24 | 36.00809 | 140.19887 | 4033 ft | 193 kts | 149° |
| 2026-05-07 02:25 | 35.99651 | 140.20743 | 4011 ft | 194 kts | 154° |
| 2026-05-07 02:25 | 35.98469 | 140.21537 | 4026 ft | 193 kts | 151° |
| 2026-05-07 02:25 | 35.97347 | 140.22413 | 4024 ft | 194 kts | 151° |
| 2026-05-07 02:25 | 35.96179 | 140.23249 | 4019 ft | 194 kts | 153° |
| 2026-05-07 02:26 | 35.95008 | 140.24103 | 3988 ft | 190 kts | 153° |
| 2026-05-07 02:26 | 35.93886 | 140.24903 | 3812 ft | 192 kts | 153° |
| 2026-05-07 02:26 | 35.92721 | 140.25716 | 3525 ft | 190 kts | 153° |
| 2026-05-07 02:26 | 35.91622 | 140.26540 | 3297 ft | 180 kts | 152° |
| 2026-05-07 02:27 | 35.90544 | 140.27310 | 3088 ft | 180 kts | 154° |
| 2026-05-07 02:27 | 35.89473 | 140.28055 | 2853 ft | 173 kts | 153° |
| 2026-05-07 02:27 | 35.88418 | 140.28857 | 2553 ft | 177 kts | 151° |
| 2026-05-07 02:27 | 35.87376 | 140.29639 | 2305 ft | 173 kts | 153° |
| 2026-05-07 02:28 | 35.86335 | 140.30364 | 2124 ft | 178 kts | 153° |
| 2026-05-07 02:28 | 35.85267 | 140.31138 | 1926 ft | 177 kts | 153° |
| 2026-05-07 02:28 | 35.84211 | 140.31914 | 1679 ft | 177 kts | 151° |
| 2026-05-07 02:28 | 35.83152 | 140.32695 | 1428 ft | 178 kts | 152° |
| 2026-05-07 02:29 | 35.82096 | 140.33463 | 1162 ft | 173 kts | 153° |
| 2026-05-07 02:29 | 35.81057 | 140.34204 | 989 ft | 173 kts | 153° |
| 2026-05-07 02:29 | 35.80021 | 140.34936 | 767 ft | 171 kts | 151° |
| 2026-05-07 02:29 | 35.78987 | 140.35690 | 589 ft | 172 kts | 149° |
| 2026-05-07 02:30 | 35.77969 | 140.36413 | 315 ft | 160 kts | 148° |
| 2026-05-07 02:30 | 35.77073 | 140.37078 | 155 ft | 135 kts | 148° |
| 2026-05-07 02:30 | 35.76535 | 140.37481 | 154 ft | 46 kts | 149° |
| 2026-05-07 02:30 | 35.76315 | 140.37644 | 153 ft | 41 kts | 150° |
| 2026-05-07 02:31 | 35.76090 | 140.37805 | 153 ft | 34 kts | 148° |
| 2026-05-07 02:31 | 35.75918 | 140.37962 | 155 ft | 22 kts | 130° |
| 2026-05-07 02:31 | 35.75877 | 140.38034 | 155 ft | 10 kts | 124° |
| 2026-05-07 02:31 | 35.75844 | 140.38098 | 155 ft | 8 kts | 121° |
| 2026-05-07 02:32 | 35.75822 | 140.38149 | 154 ft | 6 kts | 116° |
| 2026-05-07 02:32 | 35.75812 | 140.38199 | 154 ft | 1 kts | 81° |
| 2026-05-07 02:32 | 35.75828 | 140.38254 | 154 ft | 15 kts | 67° |
| 2026-05-07 02:32 | 35.75863 | 140.38321 | 153 ft | 2 kts | 28° |
| 2026-05-07 02:33 | 35.75908 | 140.38315 | 153 ft | 11 kts | 341° |
| 2026-05-07 02:33 | 35.76006 | 140.38250 | 153 ft | 21 kts | 329° |
| 2026-05-07 02:33 | 35.76128 | 140.38162 | 153 ft | 19 kts | 330° |
| 2026-05-07 02:33 | 35.76235 | 140.38084 | 153 ft | 17 kts | 329° |
| 2026-05-07 02:34 | 35.76329 | 140.38016 | 153 ft | 14 kts | 329° |
| 2026-05-07 02:34 | 35.76418 | 140.37952 | 153 ft | 16 kts | 330° |
| 2026-05-07 02:34 | 35.76507 | 140.37889 | 153 ft | 13 kts | 329° |
| 2026-05-07 02:34 | 35.76578 | 140.37841 | 153 ft | 7 kts | 341° |
| 2026-05-07 02:35 | 35.76590 | 140.37846 | 153 ft | 1 kts | 30° |
| 2026-05-07 02:35 | 35.76611 | 140.37879 | 153 ft | 15 kts | 49° |
| 2026-05-07 02:35 | 35.76666 | 140.37978 | 153 ft | 11 kts | 49° |
| 2026-05-07 02:35 | 35.76702 | 140.37990 | 153 ft | 4 kts | 358° |
| 2026-05-07 02:36 | 35.76729 | 140.37981 | 153 ft | 4 kts | 340° |
| 2026-05-07 02:36 | 35.76751 | 140.37968 | 153 ft | 6 kts | 332° |
| 2026-05-07 02:36 | 35.76783 | 140.37945 | 153 ft | 6 kts | 329° |
| 2026-05-07 02:36 | 35.76856 | 140.37894 | 153 ft | 13 kts | 329° |
| 2026-05-07 02:37 | 35.76929 | 140.37841 | 153 ft | 11 kts | 330° |
| 2026-05-07 02:37 | 35.76958 | 140.37836 | 153 ft | 2 kts | 17° |
| 2026-05-07 02:37 | 35.76964 | 140.37849 | 153 ft | 3 kts | 61° |
| 2026-05-07 02:37 | 35.76984 | 140.37894 | 153 ft | 6 kts | 60° |
| 2026-05-07 02:38 | 35.77002 | 140.37930 | 153 ft | 3 kts | 59° |
| 2026-05-07 02:38 | 35.77003 | 140.37932 | 153 ft | 0 kts | 60° |